<?xml version="1.0" encoding="UTF-8" standalone="no" ?>
<gpx xmlns="http://www.topografix.com/GPX/1/1" xmlns:xsi="http://www.w3.org/2001/XMLSchema-instance" xsi:schemaLocation="http://www.topografix.com/GPX/1/1 http://www.topografix.com/GPX/1/1/gpx.xsd" version="1.1" creator="VisuGPX - https://www.visugpx.com">
  <metadata>
    <name>Boucle de Jaure</name>
    <desc><![CDATA[Boucle de Jaure. Le départ se situe au pied de la porte de la Félibrée, place du Tilleul, au pied de l'Auberge.]]></desc>
  </metadata>
  <trk>
    <name><![CDATA[Boucle de Jaure_1]]></name>
    <trkseg>
      <trkpt lat="45.05646" lon="0.55221">
        <ele>135.2</ele>
        <time>2022-03-20T12:10:31.000Z</time>
      </trkpt>
      <trkpt lat="45.0569" lon="0.55147">
        <ele>132.7</ele>
      </trkpt>
      <trkpt lat="45.05738" lon="0.55072">
        <ele>130.7</ele>
      </trkpt>
      <trkpt lat="45.05794" lon="0.54985">
        <ele>127.9</ele>
      </trkpt>
      <trkpt lat="45.05825" lon="0.54929">
        <ele>126.6</ele>
      </trkpt>
      <trkpt lat="45.05847" lon="0.54884">
        <ele>125.8</ele>
      </trkpt>
      <trkpt lat="45.05902" lon="0.54751">
        <ele>123</ele>
      </trkpt>
      <trkpt lat="45.05917" lon="0.54706">
        <ele>121.5</ele>
        <time>2022-03-20T12:10:35.000Z</time>
      </trkpt>
      <trkpt lat="45.05898" lon="0.54706">
        <ele>131.19999694824</ele>
        <time>2022-03-20T12:10:40.000Z</time>
      </trkpt>
      <trkpt lat="45.05887" lon="0.54712">
        <ele>131.19999694824</ele>
        <time>2022-03-20T12:10:45.000Z</time>
      </trkpt>
      <trkpt lat="45.05876" lon="0.54725">
        <ele>131.19999694824</ele>
        <time>2022-03-20T12:10:50.000Z</time>
      </trkpt>
      <trkpt lat="45.05867" lon="0.54736">
        <ele>131.19999694824</ele>
        <time>2022-03-20T12:10:55.000Z</time>
      </trkpt>
      <trkpt lat="45.05859" lon="0.54742">
        <ele>131.19999694824</ele>
        <time>2022-03-20T12:11:00.000Z</time>
      </trkpt>
      <trkpt lat="45.05849" lon="0.54749">
        <ele>131.39999389648</ele>
        <time>2022-03-20T12:11:04.000Z</time>
      </trkpt>
      <trkpt lat="45.05836" lon="0.54754">
        <ele>131.60000610352</ele>
        <time>2022-03-20T12:11:09.000Z</time>
      </trkpt>
      <trkpt lat="45.05826" lon="0.54759">
        <ele>131.60000610352</ele>
        <time>2022-03-20T12:11:14.000Z</time>
      </trkpt>
      <trkpt lat="45.05811" lon="0.54764">
        <ele>131.80000305176</ele>
        <time>2022-03-20T12:11:19.000Z</time>
      </trkpt>
      <trkpt lat="45.058" lon="0.54768">
        <ele>132</ele>
        <time>2022-03-20T12:11:24.000Z</time>
      </trkpt>
      <trkpt lat="45.0579" lon="0.54774">
        <ele>132.19999694824</ele>
        <time>2022-03-20T12:11:29.000Z</time>
      </trkpt>
      <trkpt lat="45.05781" lon="0.54781">
        <ele>132.60000610352</ele>
        <time>2022-03-20T12:11:33.000Z</time>
      </trkpt>
      <trkpt lat="45.05771" lon="0.54787">
        <ele>132.80000305176</ele>
        <time>2022-03-20T12:11:38.000Z</time>
      </trkpt>
      <trkpt lat="45.05759" lon="0.54794">
        <ele>133.39999389648</ele>
        <time>2022-03-20T12:11:43.000Z</time>
      </trkpt>
      <trkpt lat="45.05748" lon="0.548">
        <ele>133.80000305176</ele>
        <time>2022-03-20T12:11:48.000Z</time>
      </trkpt>
      <trkpt lat="45.05736" lon="0.54807">
        <ele>134.19999694824</ele>
        <time>2022-03-20T12:11:53.000Z</time>
      </trkpt>
      <trkpt lat="45.05728" lon="0.54799">
        <ele>134.80000305176</ele>
        <time>2022-03-20T12:11:59.000Z</time>
      </trkpt>
      <trkpt lat="45.05724" lon="0.54787">
        <ele>135.39999389648</ele>
        <time>2022-03-20T12:12:03.000Z</time>
      </trkpt>
      <trkpt lat="45.05721" lon="0.54772">
        <ele>136</ele>
        <time>2022-03-20T12:12:08.000Z</time>
      </trkpt>
      <trkpt lat="45.05714" lon="0.54759">
        <ele>136.60000610352</ele>
        <time>2022-03-20T12:12:13.000Z</time>
      </trkpt>
      <trkpt lat="45.05716" lon="0.54741">
        <ele>137.19999694824</ele>
        <time>2022-03-20T12:12:18.000Z</time>
      </trkpt>
      <trkpt lat="45.05724" lon="0.54725">
        <ele>137.80000305176</ele>
        <time>2022-03-20T12:12:23.000Z</time>
      </trkpt>
      <trkpt lat="45.05737" lon="0.5471">
        <ele>138.19999694824</ele>
        <time>2022-03-20T12:12:28.000Z</time>
      </trkpt>
      <trkpt lat="45.05746" lon="0.54691">
        <ele>138.60000610352</ele>
        <time>2022-03-20T12:12:33.000Z</time>
      </trkpt>
      <trkpt lat="45.05742" lon="0.5467">
        <ele>139</ele>
        <time>2022-03-20T12:12:37.000Z</time>
      </trkpt>
      <trkpt lat="45.05731" lon="0.54648">
        <ele>139.19999694824</ele>
        <time>2022-03-20T12:12:42.000Z</time>
      </trkpt>
      <trkpt lat="45.05719" lon="0.54631">
        <ele>139.39999389648</ele>
        <time>2022-03-20T12:12:47.000Z</time>
      </trkpt>
      <trkpt lat="45.05709" lon="0.54615">
        <ele>139.60000610352</ele>
        <time>2022-03-20T12:12:52.000Z</time>
      </trkpt>
      <trkpt lat="45.05698" lon="0.546">
        <ele>139.60000610352</ele>
        <time>2022-03-20T12:12:57.000Z</time>
      </trkpt>
      <trkpt lat="45.05686" lon="0.54588">
        <ele>139.60000610352</ele>
        <time>2022-03-20T12:13:02.000Z</time>
      </trkpt>
      <trkpt lat="45.05677" lon="0.54575">
        <ele>139.60000610352</ele>
        <time>2022-03-20T12:13:06.000Z</time>
      </trkpt>
      <trkpt lat="45.05664" lon="0.54563">
        <ele>139.39999389648</ele>
        <time>2022-03-20T12:13:11.000Z</time>
      </trkpt>
      <trkpt lat="45.05651" lon="0.54547">
        <ele>139.39999389648</ele>
        <time>2022-03-20T12:13:16.000Z</time>
      </trkpt>
      <trkpt lat="45.05643" lon="0.5453">
        <ele>139.39999389648</ele>
        <time>2022-03-20T12:13:21.000Z</time>
      </trkpt>
      <trkpt lat="45.05637" lon="0.54508">
        <ele>139.39999389648</ele>
        <time>2022-03-20T12:13:26.000Z</time>
      </trkpt>
      <trkpt lat="45.05642" lon="0.54493">
        <ele>139.39999389648</ele>
        <time>2022-03-20T12:13:31.000Z</time>
      </trkpt>
      <trkpt lat="45.05648" lon="0.54482">
        <ele>139.39999389648</ele>
        <time>2022-03-20T12:13:35.000Z</time>
      </trkpt>
      <trkpt lat="45.05653" lon="0.54468">
        <ele>139.39999389648</ele>
        <time>2022-03-20T12:13:40.000Z</time>
      </trkpt>
      <trkpt lat="45.05664" lon="0.54456">
        <ele>139.60000610352</ele>
        <time>2022-03-20T12:13:45.000Z</time>
      </trkpt>
      <trkpt lat="45.05673" lon="0.54443">
        <ele>140</ele>
        <time>2022-03-20T12:13:50.000Z</time>
      </trkpt>
      <trkpt lat="45.0568" lon="0.54429">
        <ele>140.39999389648</ele>
        <time>2022-03-20T12:13:55.000Z</time>
      </trkpt>
      <trkpt lat="45.05683" lon="0.54412">
        <ele>140.80000305176</ele>
        <time>2022-03-20T12:14:00.000Z</time>
      </trkpt>
      <trkpt lat="45.05681" lon="0.544">
        <ele>141.19999694824</ele>
        <time>2022-03-20T12:14:04.000Z</time>
      </trkpt>
      <trkpt lat="45.05676" lon="0.54386">
        <ele>141.60000610352</ele>
        <time>2022-03-20T12:14:09.000Z</time>
      </trkpt>
      <trkpt lat="45.05666" lon="0.5438">
        <ele>142.19999694824</ele>
        <time>2022-03-20T12:14:14.000Z</time>
      </trkpt>
      <trkpt lat="45.05658" lon="0.54377">
        <ele>142.80000305176</ele>
        <time>2022-03-20T12:14:19.000Z</time>
      </trkpt>
      <trkpt lat="45.05648" lon="0.54374">
        <ele>143.60000610352</ele>
        <time>2022-03-20T12:14:24.000Z</time>
      </trkpt>
      <trkpt lat="45.05634" lon="0.54367">
        <ele>144.39999389648</ele>
        <time>2022-03-20T12:14:29.000Z</time>
      </trkpt>
      <trkpt lat="45.05623" lon="0.54366">
        <ele>144.80000305176</ele>
        <time>2022-03-20T12:14:33.000Z</time>
      </trkpt>
      <trkpt lat="45.0561" lon="0.54357">
        <ele>145.60000610352</ele>
        <time>2022-03-20T12:14:38.000Z</time>
      </trkpt>
      <trkpt lat="45.05601" lon="0.54337">
        <ele>146.19999694824</ele>
        <time>2022-03-20T12:14:43.000Z</time>
      </trkpt>
      <trkpt lat="45.0559" lon="0.54317">
        <ele>146.60000610352</ele>
        <time>2022-03-20T12:14:48.000Z</time>
      </trkpt>
      <trkpt lat="45.05577" lon="0.543">
        <ele>147.19999694824</ele>
        <time>2022-03-20T12:14:53.000Z</time>
      </trkpt>
      <trkpt lat="45.05569" lon="0.54281">
        <ele>147.60000610352</ele>
        <time>2022-03-20T12:14:58.000Z</time>
      </trkpt>
      <trkpt lat="45.05563" lon="0.54259">
        <ele>148.19999694824</ele>
        <time>2022-03-20T12:15:03.000Z</time>
      </trkpt>
      <trkpt lat="45.05559" lon="0.54242">
        <ele>148.60000610352</ele>
        <time>2022-03-20T12:15:07.000Z</time>
      </trkpt>
      <trkpt lat="45.05556" lon="0.54221">
        <ele>149</ele>
        <time>2022-03-20T12:15:12.000Z</time>
      </trkpt>
      <trkpt lat="45.05552" lon="0.54202">
        <ele>149.39999389648</ele>
        <time>2022-03-20T12:15:17.000Z</time>
      </trkpt>
      <trkpt lat="45.05548" lon="0.54182">
        <ele>150</ele>
        <time>2022-03-20T12:15:22.000Z</time>
      </trkpt>
      <trkpt lat="45.05544" lon="0.54163">
        <ele>150.39999389648</ele>
        <time>2022-03-20T12:15:27.000Z</time>
      </trkpt>
      <trkpt lat="45.0554" lon="0.54146">
        <ele>151</ele>
        <time>2022-03-20T12:15:32.000Z</time>
      </trkpt>
      <trkpt lat="45.05538" lon="0.54133">
        <ele>151.39999389648</ele>
        <time>2022-03-20T12:15:36.000Z</time>
      </trkpt>
      <trkpt lat="45.05529" lon="0.54128">
        <ele>152</ele>
        <time>2022-03-20T12:15:41.000Z</time>
      </trkpt>
      <trkpt lat="45.05517" lon="0.54128">
        <ele>152.80000305176</ele>
        <time>2022-03-20T12:15:46.000Z</time>
      </trkpt>
      <trkpt lat="45.05503" lon="0.54128">
        <ele>153.39999389648</ele>
        <time>2022-03-20T12:15:51.000Z</time>
      </trkpt>
      <trkpt lat="45.05492" lon="0.54131">
        <ele>154</ele>
        <time>2022-03-20T12:15:56.000Z</time>
      </trkpt>
      <trkpt lat="45.05481" lon="0.54136">
        <ele>154.60000610352</ele>
        <time>2022-03-20T12:16:01.000Z</time>
      </trkpt>
      <trkpt lat="45.05472" lon="0.54141">
        <ele>155.19999694824</ele>
        <time>2022-03-20T12:16:05.000Z</time>
      </trkpt>
      <trkpt lat="45.05463" lon="0.5415">
        <ele>156</ele>
        <time>2022-03-20T12:16:10.000Z</time>
      </trkpt>
      <trkpt lat="45.05456" lon="0.54159">
        <ele>156.60000610352</ele>
        <time>2022-03-20T12:16:15.000Z</time>
      </trkpt>
      <trkpt lat="45.05447" lon="0.54166">
        <ele>157.39999389648</ele>
        <time>2022-03-20T12:16:20.000Z</time>
      </trkpt>
      <trkpt lat="45.05435" lon="0.54175">
        <ele>158.19999694824</ele>
        <time>2022-03-20T12:16:25.000Z</time>
      </trkpt>
      <trkpt lat="45.05421" lon="0.54184">
        <ele>158.80000305176</ele>
        <time>2022-03-20T12:16:30.000Z</time>
      </trkpt>
      <trkpt lat="45.05412" lon="0.5419">
        <ele>159.39999389648</ele>
        <time>2022-03-20T12:16:34.000Z</time>
      </trkpt>
      <trkpt lat="45.054" lon="0.54196">
        <ele>160.19999694824</ele>
        <time>2022-03-20T12:16:39.000Z</time>
      </trkpt>
      <trkpt lat="45.05392" lon="0.54202">
        <ele>161</ele>
        <time>2022-03-20T12:16:44.000Z</time>
      </trkpt>
      <trkpt lat="45.0538" lon="0.54216">
        <ele>161.80000305176</ele>
        <time>2022-03-20T12:16:49.000Z</time>
      </trkpt>
      <trkpt lat="45.05366" lon="0.54233">
        <ele>162.39999389648</ele>
        <time>2022-03-20T12:16:54.000Z</time>
      </trkpt>
      <trkpt lat="45.05354" lon="0.54246">
        <ele>163.19999694824</ele>
        <time>2022-03-20T12:16:59.000Z</time>
      </trkpt>
      <trkpt lat="45.05344" lon="0.54262">
        <ele>163.80000305176</ele>
        <time>2022-03-20T12:17:04.000Z</time>
      </trkpt>
      <trkpt lat="45.05336" lon="0.54277">
        <ele>164.19999694824</ele>
        <time>2022-03-20T12:17:08.000Z</time>
      </trkpt>
      <trkpt lat="45.05329" lon="0.54295">
        <ele>164.80000305176</ele>
        <time>2022-03-20T12:17:13.000Z</time>
      </trkpt>
      <trkpt lat="45.05324" lon="0.54315">
        <ele>165.39999389648</ele>
        <time>2022-03-20T12:17:18.000Z</time>
      </trkpt>
      <trkpt lat="45.0532" lon="0.54336">
        <ele>166</ele>
        <time>2022-03-20T12:17:23.000Z</time>
      </trkpt>
      <trkpt lat="45.05316" lon="0.54355">
        <ele>166.39999389648</ele>
        <time>2022-03-20T12:17:28.000Z</time>
      </trkpt>
      <trkpt lat="45.05308" lon="0.54365">
        <ele>166.80000305176</ele>
        <time>2022-03-20T12:17:33.000Z</time>
      </trkpt>
      <trkpt lat="45.05295" lon="0.54368">
        <ele>167</ele>
        <time>2022-03-20T12:17:37.000Z</time>
      </trkpt>
      <trkpt lat="45.05284" lon="0.54372">
        <ele>167.39999389648</ele>
        <time>2022-03-20T12:17:42.000Z</time>
      </trkpt>
      <trkpt lat="45.05271" lon="0.54376">
        <ele>167.80000305176</ele>
        <time>2022-03-20T12:17:47.000Z</time>
      </trkpt>
      <trkpt lat="45.05261" lon="0.54379">
        <ele>168</ele>
        <time>2022-03-20T12:17:52.000Z</time>
      </trkpt>
      <trkpt lat="45.05246" lon="0.5438">
        <ele>168.39999389648</ele>
        <time>2022-03-20T12:17:58.000Z</time>
      </trkpt>
      <trkpt lat="45.05236" lon="0.5438">
        <ele>168.80000305176</ele>
        <time>2022-03-20T12:18:03.000Z</time>
      </trkpt>
      <trkpt lat="45.05221" lon="0.54377">
        <ele>168.9</ele>
        <time>2022-03-20T12:18:07.000Z</time>
      </trkpt>
      <trkpt lat="45.052" lon="0.5438">
        <ele>170</ele>
        <time>2022-03-20T12:18:12.000Z</time>
      </trkpt>
      <trkpt lat="45.05191" lon="0.54412">
        <ele>170.4</ele>
        <time>2022-03-20T12:18:17.000Z</time>
      </trkpt>
      <trkpt lat="45.05181" lon="0.54437">
        <ele>170.4</ele>
        <time>2022-03-20T12:18:22.000Z</time>
      </trkpt>
      <trkpt lat="45.05172" lon="0.54449">
        <ele>170.3</ele>
        <time>2022-03-20T12:18:27.000Z</time>
      </trkpt>
      <trkpt lat="45.05163" lon="0.54461">
        <ele>170</ele>
        <time>2022-03-20T12:18:32.000Z</time>
      </trkpt>
      <trkpt lat="45.05156" lon="0.54472">
        <ele>169.4</ele>
        <time>2022-03-20T12:18:36.000Z</time>
      </trkpt>
      <trkpt lat="45.05147" lon="0.54481">
        <ele>168.7</ele>
        <time>2022-03-20T12:18:41.000Z</time>
      </trkpt>
      <trkpt lat="45.05137" lon="0.5449">
        <ele>168.3</ele>
        <time>2022-03-20T12:18:46.000Z</time>
      </trkpt>
      <trkpt lat="45.05127" lon="0.54499">
        <ele>168.4</ele>
        <time>2022-03-20T12:18:51.000Z</time>
      </trkpt>
      <trkpt lat="45.05116" lon="0.54505">
        <ele>169.2</ele>
        <time>2022-03-20T12:18:56.000Z</time>
      </trkpt>
      <trkpt lat="45.05099" lon="0.54514">
        <ele>169.4</ele>
        <time>2022-03-20T12:19:01.000Z</time>
      </trkpt>
      <trkpt lat="45.05086" lon="0.54516">
        <ele>172.39999389648</ele>
        <time>2022-03-20T12:19:06.000Z</time>
      </trkpt>
      <trkpt lat="45.05076" lon="0.54516">
        <ele>172.60000610352</ele>
        <time>2022-03-20T12:19:10.000Z</time>
      </trkpt>
      <trkpt lat="45.05063" lon="0.54519">
        <ele>172.80000305176</ele>
        <time>2022-03-20T12:19:15.000Z</time>
      </trkpt>
      <trkpt lat="45.05045" lon="0.54521">
        <ele>173</ele>
        <time>2022-03-20T12:19:20.000Z</time>
      </trkpt>
      <trkpt lat="45.05031" lon="0.54529">
        <ele>173</ele>
        <time>2022-03-20T12:19:25.000Z</time>
      </trkpt>
      <trkpt lat="45.05018" lon="0.54538">
        <ele>173.19999694824</ele>
        <time>2022-03-20T12:19:30.000Z</time>
      </trkpt>
      <trkpt lat="45.05005" lon="0.54549">
        <ele>173.19999694824</ele>
        <time>2022-03-20T12:19:35.000Z</time>
      </trkpt>
      <trkpt lat="45.04995" lon="0.54555">
        <ele>173.39999389648</ele>
        <time>2022-03-20T12:19:39.000Z</time>
      </trkpt>
      <trkpt lat="45.04985" lon="0.54561">
        <ele>173.39999389648</ele>
        <time>2022-03-20T12:19:44.000Z</time>
      </trkpt>
      <trkpt lat="45.04971" lon="0.54571">
        <ele>173.60000610352</ele>
        <time>2022-03-20T12:19:49.000Z</time>
      </trkpt>
      <trkpt lat="45.04959" lon="0.54583">
        <ele>173.80000305176</ele>
        <time>2022-03-20T12:19:54.000Z</time>
      </trkpt>
      <trkpt lat="45.04948" lon="0.54599">
        <ele>174</ele>
        <time>2022-03-20T12:19:59.000Z</time>
      </trkpt>
      <trkpt lat="45.0494" lon="0.54612">
        <ele>174.39999389648</ele>
        <time>2022-03-20T12:20:04.000Z</time>
      </trkpt>
      <trkpt lat="45.04934" lon="0.54621">
        <ele>174.60000610352</ele>
        <time>2022-03-20T12:20:08.000Z</time>
      </trkpt>
      <trkpt lat="45.04923" lon="0.54631">
        <ele>175</ele>
        <time>2022-03-20T12:20:13.000Z</time>
      </trkpt>
      <trkpt lat="45.04914" lon="0.5464">
        <ele>175.39999389648</ele>
        <time>2022-03-20T12:20:18.000Z</time>
      </trkpt>
      <trkpt lat="45.04905" lon="0.54648">
        <ele>175.80000305176</ele>
        <time>2022-03-20T12:20:23.000Z</time>
      </trkpt>
      <trkpt lat="45.04894" lon="0.54659">
        <ele>176.39999389648</ele>
        <time>2022-03-20T12:20:28.000Z</time>
      </trkpt>
      <trkpt lat="45.04886" lon="0.54668">
        <ele>176.80000305176</ele>
        <time>2022-03-20T12:20:33.000Z</time>
      </trkpt>
      <trkpt lat="45.04875" lon="0.54672">
        <ele>177.19999694824</ele>
        <time>2022-03-20T12:20:37.000Z</time>
      </trkpt>
      <trkpt lat="45.04862" lon="0.54672">
        <ele>177.80000305176</ele>
        <time>2022-03-20T12:20:42.000Z</time>
      </trkpt>
      <trkpt lat="45.04851" lon="0.54677">
        <ele>178.19999694824</ele>
        <time>2022-03-20T12:20:47.000Z</time>
      </trkpt>
      <trkpt lat="45.0484" lon="0.54687">
        <ele>178.80000305176</ele>
        <time>2022-03-20T12:20:52.000Z</time>
      </trkpt>
      <trkpt lat="45.0483" lon="0.54699">
        <ele>179.19999694824</ele>
        <time>2022-03-20T12:20:57.000Z</time>
      </trkpt>
      <trkpt lat="45.04816" lon="0.54713">
        <ele>179.80000305176</ele>
        <time>2022-03-20T12:21:02.000Z</time>
      </trkpt>
      <trkpt lat="45.04805" lon="0.54723">
        <ele>180.19999694824</ele>
        <time>2022-03-20T12:21:06.000Z</time>
      </trkpt>
      <trkpt lat="45.0479" lon="0.54736">
        <ele>180.60000610352</ele>
        <time>2022-03-20T12:21:12.000Z</time>
      </trkpt>
      <trkpt lat="45.04779" lon="0.54752">
        <ele>181.19999694824</ele>
        <time>2022-03-20T12:21:17.000Z</time>
      </trkpt>
      <trkpt lat="45.04779" lon="0.54775">
        <ele>181.60000610352</ele>
        <time>2022-03-20T12:21:22.000Z</time>
      </trkpt>
      <trkpt lat="45.04782" lon="0.54796">
        <ele>182</ele>
        <time>2022-03-20T12:21:27.000Z</time>
      </trkpt>
      <trkpt lat="45.04789" lon="0.54816">
        <ele>182.19999694824</ele>
        <time>2022-03-20T12:21:32.000Z</time>
      </trkpt>
      <trkpt lat="45.04797" lon="0.54836">
        <ele>182.39999389648</ele>
        <time>2022-03-20T12:21:37.000Z</time>
      </trkpt>
      <trkpt lat="45.04802" lon="0.54852">
        <ele>182.60000610352</ele>
        <time>2022-03-20T12:21:41.000Z</time>
      </trkpt>
      <trkpt lat="45.04811" lon="0.54871">
        <ele>183</ele>
        <time>2022-03-20T12:21:46.000Z</time>
      </trkpt>
      <trkpt lat="45.04818" lon="0.5489">
        <ele>183.39999389648</ele>
        <time>2022-03-20T12:21:51.000Z</time>
      </trkpt>
      <trkpt lat="45.04821" lon="0.54914">
        <ele>183.60000610352</ele>
        <time>2022-03-20T12:21:56.000Z</time>
      </trkpt>
      <trkpt lat="45.04827" lon="0.54934">
        <ele>183.80000305176</ele>
        <time>2022-03-20T12:22:01.000Z</time>
      </trkpt>
      <trkpt lat="45.04834" lon="0.54951">
        <ele>184</ele>
        <time>2022-03-20T12:22:06.000Z</time>
      </trkpt>
      <trkpt lat="45.04837" lon="0.54966">
        <ele>184</ele>
        <time>2022-03-20T12:22:10.000Z</time>
      </trkpt>
      <trkpt lat="45.04838" lon="0.54982">
        <ele>184.39999389648</ele>
        <time>2022-03-20T12:22:15.000Z</time>
      </trkpt>
      <trkpt lat="45.0483" lon="0.54987">
        <ele>184.60000610352</ele>
        <time>2022-03-20T12:22:20.000Z</time>
      </trkpt>
      <trkpt lat="45.04821" lon="0.54993">
        <ele>184.80000305176</ele>
        <time>2022-03-20T12:22:25.000Z</time>
      </trkpt>
      <trkpt lat="45.04809" lon="0.55001">
        <ele>185.19999694824</ele>
        <time>2022-03-20T12:22:30.000Z</time>
      </trkpt>
      <trkpt lat="45.04798" lon="0.55005">
        <ele>185.39999389648</ele>
        <time>2022-03-20T12:22:35.000Z</time>
      </trkpt>
      <trkpt lat="45.04787" lon="0.55009">
        <ele>185.80000305176</ele>
        <time>2022-03-20T12:22:39.000Z</time>
      </trkpt>
      <trkpt lat="45.04777" lon="0.55018">
        <ele>186.19999694824</ele>
        <time>2022-03-20T12:22:44.000Z</time>
      </trkpt>
      <trkpt lat="45.04774" lon="0.55035">
        <ele>186.60000610352</ele>
        <time>2022-03-20T12:22:49.000Z</time>
      </trkpt>
      <trkpt lat="45.0477" lon="0.55053">
        <ele>187</ele>
        <time>2022-03-20T12:22:54.000Z</time>
      </trkpt>
      <trkpt lat="45.04767" lon="0.55072">
        <ele>187.60000610352</ele>
        <time>2022-03-20T12:22:59.000Z</time>
      </trkpt>
      <trkpt lat="45.04766" lon="0.55088">
        <ele>188</ele>
        <time>2022-03-20T12:23:04.000Z</time>
      </trkpt>
      <trkpt lat="45.04765" lon="0.55103">
        <ele>188.39999389648</ele>
        <time>2022-03-20T12:23:08.000Z</time>
      </trkpt>
      <trkpt lat="45.04761" lon="0.55116">
        <ele>188.80000305176</ele>
        <time>2022-03-20T12:23:13.000Z</time>
      </trkpt>
      <trkpt lat="45.04751" lon="0.55129">
        <ele>189.19999694824</ele>
        <time>2022-03-20T12:23:18.000Z</time>
      </trkpt>
      <trkpt lat="45.04743" lon="0.55143">
        <ele>189.60000610352</ele>
        <time>2022-03-20T12:23:23.000Z</time>
      </trkpt>
      <trkpt lat="45.0473" lon="0.55157">
        <ele>190</ele>
        <time>2022-03-20T12:23:28.000Z</time>
      </trkpt>
      <trkpt lat="45.04718" lon="0.55168">
        <ele>190.39999389648</ele>
        <time>2022-03-20T12:23:33.000Z</time>
      </trkpt>
      <trkpt lat="45.04705" lon="0.5518">
        <ele>190.80000305176</ele>
        <time>2022-03-20T12:23:38.000Z</time>
      </trkpt>
      <trkpt lat="45.04695" lon="0.55189">
        <ele>191</ele>
        <time>2022-03-20T12:23:42.000Z</time>
      </trkpt>
      <trkpt lat="45.04684" lon="0.55195">
        <ele>191.39999389648</ele>
        <time>2022-03-20T12:23:47.000Z</time>
      </trkpt>
      <trkpt lat="45.04671" lon="0.55202">
        <ele>191.80000305176</ele>
        <time>2022-03-20T12:23:52.000Z</time>
      </trkpt>
      <trkpt lat="45.04659" lon="0.55208">
        <ele>192.19999694824</ele>
        <time>2022-03-20T12:23:57.000Z</time>
      </trkpt>
      <trkpt lat="45.04644" lon="0.55215">
        <ele>192.60000610352</ele>
        <time>2022-03-20T12:24:02.000Z</time>
      </trkpt>
      <trkpt lat="45.04632" lon="0.55221">
        <ele>193</ele>
        <time>2022-03-20T12:24:07.000Z</time>
      </trkpt>
      <trkpt lat="45.04624" lon="0.55234">
        <ele>193.39999389648</ele>
        <time>2022-03-20T12:24:11.000Z</time>
      </trkpt>
      <trkpt lat="45.04617" lon="0.5525">
        <ele>193.80000305176</ele>
        <time>2022-03-20T12:24:16.000Z</time>
      </trkpt>
      <trkpt lat="45.04606" lon="0.5527">
        <ele>194.19999694824</ele>
        <time>2022-03-20T12:24:21.000Z</time>
      </trkpt>
      <trkpt lat="45.04595" lon="0.55291">
        <ele>194.60000610352</ele>
        <time>2022-03-20T12:24:26.000Z</time>
      </trkpt>
      <trkpt lat="45.04585" lon="0.55311">
        <ele>194.80000305176</ele>
        <time>2022-03-20T12:24:31.000Z</time>
      </trkpt>
      <trkpt lat="45.04576" lon="0.55329">
        <ele>195</ele>
        <time>2022-03-20T12:24:36.000Z</time>
      </trkpt>
      <trkpt lat="45.04571" lon="0.55342">
        <ele>195.19999694824</ele>
        <time>2022-03-20T12:24:40.000Z</time>
      </trkpt>
      <trkpt lat="45.04566" lon="0.55358">
        <ele>195.19999694824</ele>
        <time>2022-03-20T12:24:45.000Z</time>
      </trkpt>
      <trkpt lat="45.0456" lon="0.55381">
        <ele>195.39999389648</ele>
        <time>2022-03-20T12:24:50.000Z</time>
      </trkpt>
      <trkpt lat="45.04563" lon="0.55404">
        <ele>195.60000610352</ele>
        <time>2022-03-20T12:24:55.000Z</time>
      </trkpt>
      <trkpt lat="45.04569" lon="0.55425">
        <ele>195.60000610352</ele>
        <time>2022-03-20T12:25:00.000Z</time>
      </trkpt>
      <trkpt lat="45.04582" lon="0.55442">
        <ele>195.60000610352</ele>
        <time>2022-03-20T12:25:05.000Z</time>
      </trkpt>
      <trkpt lat="45.04592" lon="0.55457">
        <ele>195.80000305176</ele>
        <time>2022-03-20T12:25:09.000Z</time>
      </trkpt>
      <trkpt lat="45.046" lon="0.55478">
        <ele>195.80000305176</ele>
        <time>2022-03-20T12:25:14.000Z</time>
      </trkpt>
      <trkpt lat="45.04607" lon="0.55503">
        <ele>195.80000305176</ele>
        <time>2022-03-20T12:25:19.000Z</time>
      </trkpt>
      <trkpt lat="45.04616" lon="0.55524">
        <ele>195.80000305176</ele>
        <time>2022-03-20T12:25:24.000Z</time>
      </trkpt>
      <trkpt lat="45.04625" lon="0.55541">
        <ele>195.80000305176</ele>
        <time>2022-03-20T12:25:29.000Z</time>
      </trkpt>
      <trkpt lat="45.04635" lon="0.55555">
        <ele>195.80000305176</ele>
        <time>2022-03-20T12:25:34.000Z</time>
      </trkpt>
      <trkpt lat="45.04645" lon="0.55573">
        <ele>195.80000305176</ele>
        <time>2022-03-20T12:25:39.000Z</time>
      </trkpt>
      <trkpt lat="45.0465" lon="0.55589">
        <ele>195.80000305176</ele>
        <time>2022-03-20T12:25:43.000Z</time>
      </trkpt>
      <trkpt lat="45.04656" lon="0.55609">
        <ele>195.80000305176</ele>
        <time>2022-03-20T12:25:48.000Z</time>
      </trkpt>
      <trkpt lat="45.04664" lon="0.55626">
        <ele>196</ele>
        <time>2022-03-20T12:25:53.000Z</time>
      </trkpt>
      <trkpt lat="45.04671" lon="0.55645">
        <ele>196</ele>
        <time>2022-03-20T12:25:58.000Z</time>
      </trkpt>
      <trkpt lat="45.0468" lon="0.5566">
        <ele>196</ele>
        <time>2022-03-20T12:26:03.000Z</time>
      </trkpt>
      <trkpt lat="45.0468" lon="0.55677">
        <ele>196</ele>
        <time>2022-03-20T12:26:08.000Z</time>
      </trkpt>
      <trkpt lat="45.04669" lon="0.55688">
        <ele>196</ele>
        <time>2022-03-20T12:26:12.000Z</time>
      </trkpt>
      <trkpt lat="45.04654" lon="0.55703">
        <ele>196</ele>
        <time>2022-03-20T12:26:17.000Z</time>
      </trkpt>
      <trkpt lat="45.04643" lon="0.55713">
        <ele>195.80000305176</ele>
        <time>2022-03-20T12:26:22.000Z</time>
      </trkpt>
      <trkpt lat="45.04629" lon="0.55726">
        <ele>195.80000305176</ele>
        <time>2022-03-20T12:26:27.000Z</time>
      </trkpt>
      <trkpt lat="45.04613" lon="0.55737">
        <ele>195.60000610352</ele>
        <time>2022-03-20T12:26:32.000Z</time>
      </trkpt>
      <trkpt lat="45.046" lon="0.55748">
        <ele>195.39999389648</ele>
        <time>2022-03-20T12:26:37.000Z</time>
      </trkpt>
      <trkpt lat="45.0459" lon="0.55758">
        <ele>195.39999389648</ele>
        <time>2022-03-20T12:26:41.000Z</time>
      </trkpt>
      <trkpt lat="45.04578" lon="0.55767">
        <ele>195.19999694824</ele>
        <time>2022-03-20T12:26:46.000Z</time>
      </trkpt>
      <trkpt lat="45.04568" lon="0.55777">
        <ele>195.19999694824</ele>
        <time>2022-03-20T12:26:51.000Z</time>
      </trkpt>
      <trkpt lat="45.04556" lon="0.55782">
        <ele>195</ele>
        <time>2022-03-20T12:26:56.000Z</time>
      </trkpt>
      <trkpt lat="45.04542" lon="0.55785">
        <ele>195</ele>
        <time>2022-03-20T12:27:01.000Z</time>
      </trkpt>
      <trkpt lat="45.04529" lon="0.55785">
        <ele>195</ele>
        <time>2022-03-20T12:27:06.000Z</time>
      </trkpt>
      <trkpt lat="45.04521" lon="0.55771">
        <ele>195</ele>
        <time>2022-03-20T12:27:10.000Z</time>
      </trkpt>
      <trkpt lat="45.04513" lon="0.55752">
        <ele>194.80000305176</ele>
        <time>2022-03-20T12:27:15.000Z</time>
      </trkpt>
      <trkpt lat="45.04505" lon="0.55735">
        <ele>194.80000305176</ele>
        <time>2022-03-20T12:27:20.000Z</time>
      </trkpt>
      <trkpt lat="45.04493" lon="0.55721">
        <ele>195</ele>
        <time>2022-03-20T12:27:25.000Z</time>
      </trkpt>
      <trkpt lat="45.04477" lon="0.55709">
        <ele>194.80000305176</ele>
        <time>2022-03-20T12:27:30.000Z</time>
      </trkpt>
      <trkpt lat="45.04458" lon="0.55702">
        <ele>194.80000305176</ele>
        <time>2022-03-20T12:27:35.000Z</time>
      </trkpt>
      <trkpt lat="45.04446" lon="0.55693">
        <ele>194.80000305176</ele>
        <time>2022-03-20T12:27:39.000Z</time>
      </trkpt>
      <trkpt lat="45.04434" lon="0.55678">
        <ele>194.80000305176</ele>
        <time>2022-03-20T12:27:44.000Z</time>
      </trkpt>
      <trkpt lat="45.04425" lon="0.55663">
        <ele>194.80000305176</ele>
        <time>2022-03-20T12:27:49.000Z</time>
      </trkpt>
      <trkpt lat="45.0442" lon="0.55644">
        <ele>194.80000305176</ele>
        <time>2022-03-20T12:27:54.000Z</time>
      </trkpt>
      <trkpt lat="45.04419" lon="0.55625">
        <ele>194.80000305176</ele>
        <time>2022-03-20T12:27:59.000Z</time>
      </trkpt>
      <trkpt lat="45.04411" lon="0.55611">
        <ele>195</ele>
        <time>2022-03-20T12:28:04.000Z</time>
      </trkpt>
      <trkpt lat="45.04398" lon="0.55607">
        <ele>195</ele>
        <time>2022-03-20T12:28:09.000Z</time>
      </trkpt>
      <trkpt lat="45.04388" lon="0.55607">
        <ele>195.19999694824</ele>
        <time>2022-03-20T12:28:13.000Z</time>
      </trkpt>
      <trkpt lat="45.04379" lon="0.55604">
        <ele>195.19999694824</ele>
        <time>2022-03-20T12:28:18.000Z</time>
      </trkpt>
      <trkpt lat="45.04367" lon="0.55603">
        <ele>195.39999389648</ele>
        <time>2022-03-20T12:28:23.000Z</time>
      </trkpt>
      <trkpt lat="45.04357" lon="0.55603">
        <ele>195.60000610352</ele>
        <time>2022-03-20T12:28:28.000Z</time>
      </trkpt>
      <trkpt lat="45.04347" lon="0.5561">
        <ele>195.80000305176</ele>
        <time>2022-03-20T12:28:33.000Z</time>
      </trkpt>
      <trkpt lat="45.04334" lon="0.55619">
        <ele>196</ele>
        <time>2022-03-20T12:28:38.000Z</time>
      </trkpt>
      <trkpt lat="45.04324" lon="0.55618">
        <ele>196.19999694824</ele>
        <time>2022-03-20T12:28:42.000Z</time>
      </trkpt>
      <trkpt lat="45.04307" lon="0.55618">
        <ele>196.39999389648</ele>
        <time>2022-03-20T12:28:47.000Z</time>
      </trkpt>
      <trkpt lat="45.04291" lon="0.55619">
        <ele>196.60000610352</ele>
        <time>2022-03-20T12:28:52.000Z</time>
      </trkpt>
      <trkpt lat="45.04275" lon="0.55617">
        <ele>196.80000305176</ele>
        <time>2022-03-20T12:28:57.000Z</time>
      </trkpt>
      <trkpt lat="45.04259" lon="0.55607">
        <ele>197</ele>
        <time>2022-03-20T12:29:02.000Z</time>
      </trkpt>
      <trkpt lat="45.04243" lon="0.55606">
        <ele>197.19999694824</ele>
        <time>2022-03-20T12:29:08.000Z</time>
      </trkpt>
      <trkpt lat="45.04234" lon="0.55606">
        <ele>197.39999389648</ele>
        <time>2022-03-20T12:29:12.000Z</time>
      </trkpt>
      <trkpt lat="45.04222" lon="0.55609">
        <ele>197.80000305176</ele>
        <time>2022-03-20T12:29:17.000Z</time>
      </trkpt>
      <trkpt lat="45.04206" lon="0.55614">
        <ele>198</ele>
        <time>2022-03-20T12:29:22.000Z</time>
      </trkpt>
      <trkpt lat="45.04193" lon="0.55617">
        <ele>198.39999389648</ele>
        <time>2022-03-20T12:29:27.000Z</time>
      </trkpt>
      <trkpt lat="45.0418" lon="0.55621">
        <ele>198.80000305176</ele>
        <time>2022-03-20T12:29:32.000Z</time>
      </trkpt>
      <trkpt lat="45.04168" lon="0.55626">
        <ele>199.19999694824</ele>
        <time>2022-03-20T12:29:37.000Z</time>
      </trkpt>
      <trkpt lat="45.04161" lon="0.55639">
        <ele>199.60000610352</ele>
        <time>2022-03-20T12:29:41.000Z</time>
      </trkpt>
      <trkpt lat="45.04161" lon="0.55658">
        <ele>200</ele>
        <time>2022-03-20T12:29:46.000Z</time>
      </trkpt>
      <trkpt lat="45.04161" lon="0.55676">
        <ele>200.39999389648</ele>
        <time>2022-03-20T12:29:51.000Z</time>
      </trkpt>
      <trkpt lat="45.04163" lon="0.55698">
        <ele>201</ele>
        <time>2022-03-20T12:29:56.000Z</time>
      </trkpt>
      <trkpt lat="45.04168" lon="0.55719">
        <ele>201.39999389648</ele>
        <time>2022-03-20T12:30:01.000Z</time>
      </trkpt>
      <trkpt lat="45.0417" lon="0.55739">
        <ele>201.80000305176</ele>
        <time>2022-03-20T12:30:06.000Z</time>
      </trkpt>
      <trkpt lat="45.04173" lon="0.5576">
        <ele>202.39999389648</ele>
        <time>2022-03-20T12:30:11.000Z</time>
      </trkpt>
      <trkpt lat="45.04173" lon="0.55778">
        <ele>202.80000305176</ele>
        <time>2022-03-20T12:30:15.000Z</time>
      </trkpt>
      <trkpt lat="45.0417" lon="0.558">
        <ele>203.19999694824</ele>
        <time>2022-03-20T12:30:20.000Z</time>
      </trkpt>
      <trkpt lat="45.04173" lon="0.55821">
        <ele>203.80000305176</ele>
        <time>2022-03-20T12:30:25.000Z</time>
      </trkpt>
      <trkpt lat="45.04175" lon="0.5584">
        <ele>204.19999694824</ele>
        <time>2022-03-20T12:30:30.000Z</time>
      </trkpt>
      <trkpt lat="45.04178" lon="0.55859">
        <ele>204.60000610352</ele>
        <time>2022-03-20T12:30:35.000Z</time>
      </trkpt>
      <trkpt lat="45.04178" lon="0.55878">
        <ele>205.19999694824</ele>
        <time>2022-03-20T12:30:40.000Z</time>
      </trkpt>
      <trkpt lat="45.04186" lon="0.5589">
        <ele>205.39999389648</ele>
        <time>2022-03-20T12:30:44.000Z</time>
      </trkpt>
      <trkpt lat="45.04195" lon="0.55906">
        <ele>205.80000305176</ele>
        <time>2022-03-20T12:30:49.000Z</time>
      </trkpt>
      <trkpt lat="45.04214" lon="0.55918">
        <ele>206</ele>
        <time>2022-03-20T12:30:54.000Z</time>
      </trkpt>
      <trkpt lat="45.0423" lon="0.55933">
        <ele>206.39999389648</ele>
        <time>2022-03-20T12:30:59.000Z</time>
      </trkpt>
      <trkpt lat="45.04246" lon="0.55948">
        <ele>206.80000305176</ele>
        <time>2022-03-20T12:31:04.000Z</time>
      </trkpt>
      <trkpt lat="45.04254" lon="0.55971">
        <ele>207.19999694824</ele>
        <time>2022-03-20T12:31:09.000Z</time>
      </trkpt>
      <trkpt lat="45.04261" lon="0.55985">
        <ele>213.60000610352</ele>
        <time>2022-03-20T12:31:13.000Z</time>
      </trkpt>
      <trkpt lat="45.04269" lon="0.56005">
        <ele>217.60000610352</ele>
        <time>2022-03-20T12:31:18.000Z</time>
      </trkpt>
      <trkpt lat="45.04279" lon="0.56022">
        <ele>218.60000610352</ele>
        <time>2022-03-20T12:31:23.000Z</time>
      </trkpt>
      <trkpt lat="45.04291" lon="0.56035">
        <ele>218.39999389648</ele>
        <time>2022-03-20T12:31:28.000Z</time>
      </trkpt>
      <trkpt lat="45.04297" lon="0.56053">
        <ele>218.60000610352</ele>
        <time>2022-03-20T12:31:33.000Z</time>
      </trkpt>
      <trkpt lat="45.04299" lon="0.56075">
        <ele>219.19999694824</ele>
        <time>2022-03-20T12:31:38.000Z</time>
      </trkpt>
      <trkpt lat="45.04303" lon="0.56094">
        <ele>219.39999389648</ele>
        <time>2022-03-20T12:31:42.000Z</time>
      </trkpt>
      <trkpt lat="45.04304" lon="0.5612">
        <ele>220.19999694824</ele>
        <time>2022-03-20T12:31:47.000Z</time>
      </trkpt>
      <trkpt lat="45.04311" lon="0.56136">
        <ele>220.60000610352</ele>
        <time>2022-03-20T12:31:52.000Z</time>
      </trkpt>
      <trkpt lat="45.04321" lon="0.56152">
        <ele>219.39999389648</ele>
        <time>2022-03-20T12:31:57.000Z</time>
      </trkpt>
      <trkpt lat="45.0433" lon="0.56171">
        <ele>218.80000305176</ele>
        <time>2022-03-20T12:32:02.000Z</time>
      </trkpt>
      <trkpt lat="45.04342" lon="0.56187">
        <ele>219.39999389648</ele>
        <time>2022-03-20T12:32:07.000Z</time>
      </trkpt>
      <trkpt lat="45.04355" lon="0.56203">
        <ele>219.19999694824</ele>
        <time>2022-03-20T12:32:12.000Z</time>
      </trkpt>
      <trkpt lat="45.04355" lon="0.56227">
        <ele>219.19999694824</ele>
        <time>2022-03-20T12:32:16.000Z</time>
      </trkpt>
      <trkpt lat="45.0436" lon="0.56248">
        <ele>219.19999694824</ele>
        <time>2022-03-20T12:32:21.000Z</time>
      </trkpt>
      <trkpt lat="45.04362" lon="0.56272">
        <ele>219.80000305176</ele>
        <time>2022-03-20T12:32:26.000Z</time>
      </trkpt>
      <trkpt lat="45.04357" lon="0.56298">
        <ele>220.19999694824</ele>
        <time>2022-03-20T12:32:31.000Z</time>
      </trkpt>
      <trkpt lat="45.0435" lon="0.56324">
        <ele>221.80000305176</ele>
        <time>2022-03-20T12:32:36.000Z</time>
      </trkpt>
      <trkpt lat="45.04345" lon="0.56348">
        <ele>223.80000305176</ele>
        <time>2022-03-20T12:32:41.000Z</time>
      </trkpt>
      <trkpt lat="45.04342" lon="0.56365">
        <ele>224.19999694824</ele>
        <time>2022-03-20T12:32:45.000Z</time>
      </trkpt>
      <trkpt lat="45.04339" lon="0.56387">
        <ele>224</ele>
        <time>2022-03-20T12:32:50.000Z</time>
      </trkpt>
      <trkpt lat="45.04336" lon="0.56409">
        <ele>224.39999389648</ele>
        <time>2022-03-20T12:32:55.000Z</time>
      </trkpt>
      <trkpt lat="45.04332" lon="0.56433">
        <ele>224.60000610352</ele>
        <time>2022-03-20T12:33:00.000Z</time>
      </trkpt>
      <trkpt lat="45.0433" lon="0.56454">
        <ele>225</ele>
        <time>2022-03-20T12:33:05.000Z</time>
      </trkpt>
      <trkpt lat="45.04325" lon="0.56475">
        <ele>225.80000305176</ele>
        <time>2022-03-20T12:33:10.000Z</time>
      </trkpt>
      <trkpt lat="45.04324" lon="0.56491">
        <ele>226.80000305176</ele>
        <time>2022-03-20T12:33:14.000Z</time>
      </trkpt>
      <trkpt lat="45.04323" lon="0.56513">
        <ele>225</ele>
        <time>2022-03-20T12:33:19.000Z</time>
      </trkpt>
      <trkpt lat="45.04323" lon="0.56534">
        <ele>223.39999389648</ele>
        <time>2022-03-20T12:33:24.000Z</time>
      </trkpt>
      <trkpt lat="45.04323" lon="0.56555">
        <ele>223</ele>
        <time>2022-03-20T12:33:29.000Z</time>
      </trkpt>
      <trkpt lat="45.04323" lon="0.56578">
        <ele>223.19999694824</ele>
        <time>2022-03-20T12:33:34.000Z</time>
      </trkpt>
      <trkpt lat="45.0432" lon="0.56601">
        <ele>223</ele>
        <time>2022-03-20T12:33:39.000Z</time>
      </trkpt>
      <trkpt lat="45.0432" lon="0.56619">
        <ele>222.80000305176</ele>
        <time>2022-03-20T12:33:43.000Z</time>
      </trkpt>
      <trkpt lat="45.0432" lon="0.5664">
        <ele>221.39999389648</ele>
        <time>2022-03-20T12:33:48.000Z</time>
      </trkpt>
      <trkpt lat="45.04319" lon="0.56662">
        <ele>220.19999694824</ele>
        <time>2022-03-20T12:33:53.000Z</time>
      </trkpt>
      <trkpt lat="45.04317" lon="0.56686">
        <ele>219.80000305176</ele>
        <time>2022-03-20T12:33:58.000Z</time>
      </trkpt>
      <trkpt lat="45.04315" lon="0.56709">
        <ele>219.19999694824</ele>
        <time>2022-03-20T12:34:03.000Z</time>
      </trkpt>
      <trkpt lat="45.04311" lon="0.56733">
        <ele>219.19999694824</ele>
        <time>2022-03-20T12:34:08.000Z</time>
      </trkpt>
      <trkpt lat="45.04307" lon="0.56752">
        <ele>218</ele>
        <time>2022-03-20T12:34:12.000Z</time>
      </trkpt>
      <trkpt lat="45.04303" lon="0.56775">
        <ele>218.60000610352</ele>
        <time>2022-03-20T12:34:17.000Z</time>
      </trkpt>
      <trkpt lat="45.04299" lon="0.56796">
        <ele>217.60000610352</ele>
        <time>2022-03-20T12:34:22.000Z</time>
      </trkpt>
      <trkpt lat="45.04295" lon="0.56818">
        <ele>218</ele>
        <time>2022-03-20T12:34:27.000Z</time>
      </trkpt>
      <trkpt lat="45.04294" lon="0.56839">
        <ele>217.60000610352</ele>
        <time>2022-03-20T12:34:32.000Z</time>
      </trkpt>
      <trkpt lat="45.04293" lon="0.56862">
        <ele>217.39999389648</ele>
        <time>2022-03-20T12:34:37.000Z</time>
      </trkpt>
      <trkpt lat="45.04299" lon="0.56879">
        <ele>218</ele>
        <time>2022-03-20T12:34:42.000Z</time>
      </trkpt>
      <trkpt lat="45.04311" lon="0.56878">
        <ele>215.39999389648</ele>
        <time>2022-03-20T12:34:46.000Z</time>
      </trkpt>
      <trkpt lat="45.04325" lon="0.56871">
        <ele>214.80000305176</ele>
        <time>2022-03-20T12:34:51.000Z</time>
      </trkpt>
      <trkpt lat="45.0434" lon="0.56862">
        <ele>212.60000610352</ele>
        <time>2022-03-20T12:34:56.000Z</time>
      </trkpt>
      <trkpt lat="45.04354" lon="0.56853">
        <ele>211</ele>
        <time>2022-03-20T12:35:01.000Z</time>
      </trkpt>
      <trkpt lat="45.04368" lon="0.56843">
        <ele>209.80000305176</ele>
        <time>2022-03-20T12:35:06.000Z</time>
      </trkpt>
      <trkpt lat="45.04383" lon="0.56834">
        <ele>208.19999694824</ele>
        <time>2022-03-20T12:35:11.000Z</time>
      </trkpt>
      <trkpt lat="45.04396" lon="0.56827">
        <ele>207.39999389648</ele>
        <time>2022-03-20T12:35:15.000Z</time>
      </trkpt>
      <trkpt lat="45.04412" lon="0.56818">
        <ele>208</ele>
        <time>2022-03-20T12:35:20.000Z</time>
      </trkpt>
      <trkpt lat="45.04428" lon="0.56809">
        <ele>209.19999694824</ele>
        <time>2022-03-20T12:35:25.000Z</time>
      </trkpt>
      <trkpt lat="45.04441" lon="0.56804">
        <ele>207</ele>
        <time>2022-03-20T12:35:30.000Z</time>
      </trkpt>
      <trkpt lat="45.04454" lon="0.56798">
        <ele>206.39999389648</ele>
        <time>2022-03-20T12:35:35.000Z</time>
      </trkpt>
      <trkpt lat="45.04468" lon="0.56792">
        <ele>206.80000305176</ele>
        <time>2022-03-20T12:35:40.000Z</time>
      </trkpt>
      <trkpt lat="45.0448" lon="0.56785">
        <ele>205.80000305176</ele>
        <time>2022-03-20T12:35:44.000Z</time>
      </trkpt>
      <trkpt lat="45.04497" lon="0.56778">
        <ele>205.60000610352</ele>
        <time>2022-03-20T12:35:49.000Z</time>
      </trkpt>
      <trkpt lat="45.04515" lon="0.56771">
        <ele>204.60000610352</ele>
        <time>2022-03-20T12:35:54.000Z</time>
      </trkpt>
      <trkpt lat="45.04532" lon="0.56763">
        <ele>203.39999389648</ele>
        <time>2022-03-20T12:35:59.000Z</time>
      </trkpt>
      <trkpt lat="45.04549" lon="0.56758">
        <ele>202.39999389648</ele>
        <time>2022-03-20T12:36:04.000Z</time>
      </trkpt>
      <trkpt lat="45.04566" lon="0.56753">
        <ele>202</ele>
        <time>2022-03-20T12:36:09.000Z</time>
      </trkpt>
      <trkpt lat="45.04581" lon="0.5675">
        <ele>202.80000305176</ele>
        <time>2022-03-20T12:36:13.000Z</time>
      </trkpt>
      <trkpt lat="45.04596" lon="0.56747">
        <ele>203.80000305176</ele>
        <time>2022-03-20T12:36:18.000Z</time>
      </trkpt>
      <trkpt lat="45.04612" lon="0.56742">
        <ele>205.39999389648</ele>
        <time>2022-03-20T12:36:23.000Z</time>
      </trkpt>
      <trkpt lat="45.04628" lon="0.56736">
        <ele>203.39999389648</ele>
        <time>2022-03-20T12:36:28.000Z</time>
      </trkpt>
      <trkpt lat="45.04643" lon="0.56729">
        <ele>202</ele>
        <time>2022-03-20T12:36:33.000Z</time>
      </trkpt>
      <trkpt lat="45.04659" lon="0.56721">
        <ele>201</ele>
        <time>2022-03-20T12:36:38.000Z</time>
      </trkpt>
      <trkpt lat="45.04676" lon="0.56713">
        <ele>200.19999694824</ele>
        <time>2022-03-20T12:36:43.000Z</time>
      </trkpt>
      <trkpt lat="45.04689" lon="0.56708">
        <ele>199.60000610352</ele>
        <time>2022-03-20T12:36:47.000Z</time>
      </trkpt>
      <trkpt lat="45.04705" lon="0.567">
        <ele>198</ele>
        <time>2022-03-20T12:36:52.000Z</time>
      </trkpt>
      <trkpt lat="45.0472" lon="0.56691">
        <ele>199.19999694824</ele>
        <time>2022-03-20T12:36:57.000Z</time>
      </trkpt>
      <trkpt lat="45.04735" lon="0.56682">
        <ele>198.39999389648</ele>
        <time>2022-03-20T12:37:02.000Z</time>
      </trkpt>
      <trkpt lat="45.0475" lon="0.56675">
        <ele>197.39999389648</ele>
        <time>2022-03-20T12:37:07.000Z</time>
      </trkpt>
      <trkpt lat="45.04766" lon="0.56668">
        <ele>198.60000610352</ele>
        <time>2022-03-20T12:37:12.000Z</time>
      </trkpt>
      <trkpt lat="45.04777" lon="0.56662">
        <ele>201</ele>
        <time>2022-03-20T12:37:16.000Z</time>
      </trkpt>
      <trkpt lat="45.04792" lon="0.56656">
        <ele>201.80000305176</ele>
        <time>2022-03-20T12:37:21.000Z</time>
      </trkpt>
      <trkpt lat="45.04808" lon="0.5665">
        <ele>200</ele>
        <time>2022-03-20T12:37:26.000Z</time>
      </trkpt>
      <trkpt lat="45.04824" lon="0.56644">
        <ele>199.19999694824</ele>
        <time>2022-03-20T12:37:31.000Z</time>
      </trkpt>
      <trkpt lat="45.0483" lon="0.56627">
        <ele>199</ele>
        <time>2022-03-20T12:37:36.000Z</time>
      </trkpt>
      <trkpt lat="45.04834" lon="0.56607">
        <ele>200</ele>
        <time>2022-03-20T12:37:41.000Z</time>
      </trkpt>
      <trkpt lat="45.04838" lon="0.56591">
        <ele>201.60000610352</ele>
        <time>2022-03-20T12:37:45.000Z</time>
      </trkpt>
      <trkpt lat="45.04844" lon="0.5657">
        <ele>200.60000610352</ele>
        <time>2022-03-20T12:37:50.000Z</time>
      </trkpt>
      <trkpt lat="45.04852" lon="0.56551">
        <ele>199.80000305176</ele>
        <time>2022-03-20T12:37:55.000Z</time>
      </trkpt>
      <trkpt lat="45.04861" lon="0.56534">
        <ele>198.19999694824</ele>
        <time>2022-03-20T12:38:00.000Z</time>
      </trkpt>
      <trkpt lat="45.04871" lon="0.5652">
        <ele>198</ele>
        <time>2022-03-20T12:38:05.000Z</time>
      </trkpt>
      <trkpt lat="45.04884" lon="0.56503">
        <ele>197.60000610352</ele>
        <time>2022-03-20T12:38:10.000Z</time>
      </trkpt>
      <trkpt lat="45.04893" lon="0.56488">
        <ele>196.80000305176</ele>
        <time>2022-03-20T12:38:14.000Z</time>
      </trkpt>
      <trkpt lat="45.04902" lon="0.56471">
        <ele>195.80000305176</ele>
        <time>2022-03-20T12:38:19.000Z</time>
      </trkpt>
      <trkpt lat="45.04911" lon="0.56454">
        <ele>195.19999694824</ele>
        <time>2022-03-20T12:38:24.000Z</time>
      </trkpt>
      <trkpt lat="45.04921" lon="0.56434">
        <ele>196.19999694824</ele>
        <time>2022-03-20T12:38:29.000Z</time>
      </trkpt>
      <trkpt lat="45.04933" lon="0.56414">
        <ele>194.60000610352</ele>
        <time>2022-03-20T12:38:34.000Z</time>
      </trkpt>
      <trkpt lat="45.04947" lon="0.56392">
        <ele>193.60000610352</ele>
        <time>2022-03-20T12:38:40.000Z</time>
      </trkpt>
      <trkpt lat="45.04956" lon="0.56376">
        <ele>193.80000305176</ele>
        <time>2022-03-20T12:38:44.000Z</time>
      </trkpt>
      <trkpt lat="45.04966" lon="0.56355">
        <ele>194</ele>
        <time>2022-03-20T12:38:49.000Z</time>
      </trkpt>
      <trkpt lat="45.04976" lon="0.56339">
        <ele>194.60000610352</ele>
        <time>2022-03-20T12:38:54.000Z</time>
      </trkpt>
      <trkpt lat="45.04987" lon="0.56325">
        <ele>195.60000610352</ele>
        <time>2022-03-20T12:38:59.000Z</time>
      </trkpt>
      <trkpt lat="45.04995" lon="0.56309">
        <ele>196.60000610352</ele>
        <time>2022-03-20T12:39:04.000Z</time>
      </trkpt>
      <trkpt lat="45.05005" lon="0.5629">
        <ele>195.60000610352</ele>
        <time>2022-03-20T12:39:09.000Z</time>
      </trkpt>
      <trkpt lat="45.05013" lon="0.56277">
        <ele>194</ele>
        <time>2022-03-20T12:39:14.000Z</time>
      </trkpt>
      <trkpt lat="45.05022" lon="0.56267">
        <ele>194</ele>
        <time>2022-03-20T12:39:18.000Z</time>
      </trkpt>
      <trkpt lat="45.05034" lon="0.56254">
        <ele>193.60000610352</ele>
        <time>2022-03-20T12:39:23.000Z</time>
      </trkpt>
      <trkpt lat="45.05051" lon="0.56247">
        <ele>195.19999694824</ele>
        <time>2022-03-20T12:39:28.000Z</time>
      </trkpt>
      <trkpt lat="45.05068" lon="0.56249">
        <ele>194</ele>
        <time>2022-03-20T12:39:33.000Z</time>
      </trkpt>
      <trkpt lat="45.05084" lon="0.56252">
        <ele>193</ele>
        <time>2022-03-20T12:39:38.000Z</time>
      </trkpt>
      <trkpt lat="45.05102" lon="0.56255">
        <ele>191.60000610352</ele>
        <time>2022-03-20T12:39:43.000Z</time>
      </trkpt>
      <trkpt lat="45.05115" lon="0.5626">
        <ele>191.60000610352</ele>
        <time>2022-03-20T12:39:47.000Z</time>
      </trkpt>
      <trkpt lat="45.05129" lon="0.56268">
        <ele>193</ele>
        <time>2022-03-20T12:39:52.000Z</time>
      </trkpt>
      <trkpt lat="45.05148" lon="0.56273">
        <ele>193.80000305176</ele>
        <time>2022-03-20T12:39:57.000Z</time>
      </trkpt>
      <trkpt lat="45.05161" lon="0.5628">
        <ele>191.60000610352</ele>
        <time>2022-03-20T12:40:02.000Z</time>
      </trkpt>
      <trkpt lat="45.05173" lon="0.56289">
        <ele>189.80000305176</ele>
        <time>2022-03-20T12:40:07.000Z</time>
      </trkpt>
      <trkpt lat="45.0519" lon="0.56295">
        <ele>189.19999694824</ele>
        <time>2022-03-20T12:40:12.000Z</time>
      </trkpt>
      <trkpt lat="45.05204" lon="0.56299">
        <ele>189.19999694824</ele>
        <time>2022-03-20T12:40:16.000Z</time>
      </trkpt>
      <trkpt lat="45.05218" lon="0.56304">
        <ele>188</ele>
        <time>2022-03-20T12:40:21.000Z</time>
      </trkpt>
      <trkpt lat="45.05233" lon="0.56307">
        <ele>186.19999694824</ele>
        <time>2022-03-20T12:40:26.000Z</time>
      </trkpt>
      <trkpt lat="45.0525" lon="0.56306">
        <ele>186.60000610352</ele>
        <time>2022-03-20T12:40:31.000Z</time>
      </trkpt>
      <trkpt lat="45.05266" lon="0.56301">
        <ele>186.39999389648</ele>
        <time>2022-03-20T12:40:36.000Z</time>
      </trkpt>
      <trkpt lat="45.05283" lon="0.56311">
        <ele>184.39999389648</ele>
        <time>2022-03-20T12:40:41.000Z</time>
      </trkpt>
      <trkpt lat="45.05296" lon="0.56318">
        <ele>185.39999389648</ele>
        <time>2022-03-20T12:40:45.000Z</time>
      </trkpt>
      <trkpt lat="45.0531" lon="0.56329">
        <ele>187</ele>
        <time>2022-03-20T12:40:50.000Z</time>
      </trkpt>
      <trkpt lat="45.05326" lon="0.56339">
        <ele>184.80000305176</ele>
        <time>2022-03-20T12:40:55.000Z</time>
      </trkpt>
      <trkpt lat="45.05342" lon="0.56351">
        <ele>184.39999389648</ele>
        <time>2022-03-20T12:41:00.000Z</time>
      </trkpt>
      <trkpt lat="45.05355" lon="0.56361">
        <ele>184.60000610352</ele>
        <time>2022-03-20T12:41:06.000Z</time>
      </trkpt>
      <trkpt lat="45.05368" lon="0.56352">
        <ele>186.19999694824</ele>
        <time>2022-03-20T12:41:11.000Z</time>
      </trkpt>
      <trkpt lat="45.05378" lon="0.56339">
        <ele>186.80000305176</ele>
        <time>2022-03-20T12:41:16.000Z</time>
      </trkpt>
      <trkpt lat="45.05386" lon="0.56327">
        <ele>186.60000610352</ele>
        <time>2022-03-20T12:41:20.000Z</time>
      </trkpt>
      <trkpt lat="45.05396" lon="0.56315">
        <ele>185.60000610352</ele>
        <time>2022-03-20T12:41:25.000Z</time>
      </trkpt>
      <trkpt lat="45.05409" lon="0.56304">
        <ele>184.39999389648</ele>
        <time>2022-03-20T12:41:30.000Z</time>
      </trkpt>
      <trkpt lat="45.05422" lon="0.56288">
        <ele>185.80000305176</ele>
        <time>2022-03-20T12:41:35.000Z</time>
      </trkpt>
      <trkpt lat="45.05432" lon="0.56279">
        <ele>185.80000305176</ele>
        <time>2022-03-20T12:41:40.000Z</time>
      </trkpt>
      <trkpt lat="45.05448" lon="0.56269">
        <ele>184.19999694824</ele>
        <time>2022-03-20T12:41:45.000Z</time>
      </trkpt>
      <trkpt lat="45.05458" lon="0.56266">
        <ele>184</ele>
        <time>2022-03-20T12:41:49.000Z</time>
      </trkpt>
      <trkpt lat="45.0547" lon="0.56262">
        <ele>185</ele>
        <time>2022-03-20T12:41:54.000Z</time>
      </trkpt>
      <trkpt lat="45.05485" lon="0.56258">
        <ele>184.19999694824</ele>
        <time>2022-03-20T12:41:59.000Z</time>
      </trkpt>
      <trkpt lat="45.055" lon="0.5625">
        <ele>183.80000305176</ele>
        <time>2022-03-20T12:42:04.000Z</time>
      </trkpt>
      <trkpt lat="45.05516" lon="0.5624">
        <ele>185.19999694824</ele>
        <time>2022-03-20T12:42:09.000Z</time>
      </trkpt>
      <trkpt lat="45.05531" lon="0.56228">
        <ele>185.19999694824</ele>
        <time>2022-03-20T12:42:14.000Z</time>
      </trkpt>
      <trkpt lat="45.05542" lon="0.56219">
        <ele>183.39999389648</ele>
        <time>2022-03-20T12:42:18.000Z</time>
      </trkpt>
      <trkpt lat="45.05558" lon="0.56211">
        <ele>183</ele>
        <time>2022-03-20T12:42:23.000Z</time>
      </trkpt>
      <trkpt lat="45.05574" lon="0.56219">
        <ele>182.60000610352</ele>
        <time>2022-03-20T12:42:28.000Z</time>
      </trkpt>
      <trkpt lat="45.05594" lon="0.5622">
        <ele>183</ele>
        <time>2022-03-20T12:42:33.000Z</time>
      </trkpt>
      <trkpt lat="45.05609" lon="0.56219">
        <ele>184</ele>
        <time>2022-03-20T12:42:38.000Z</time>
      </trkpt>
      <trkpt lat="45.05625" lon="0.5622">
        <ele>185.60000610352</ele>
        <time>2022-03-20T12:42:43.000Z</time>
      </trkpt>
      <trkpt lat="45.05638" lon="0.56221">
        <ele>185.80000305176</ele>
        <time>2022-03-20T12:42:47.000Z</time>
      </trkpt>
      <trkpt lat="45.05652" lon="0.56223">
        <ele>186</ele>
        <time>2022-03-20T12:42:52.000Z</time>
      </trkpt>
      <trkpt lat="45.05668" lon="0.56232">
        <ele>185.39999389648</ele>
        <time>2022-03-20T12:42:57.000Z</time>
      </trkpt>
      <trkpt lat="45.05684" lon="0.56235">
        <ele>184.80000305176</ele>
        <time>2022-03-20T12:43:02.000Z</time>
      </trkpt>
      <trkpt lat="45.05699" lon="0.56235">
        <ele>183.80000305176</ele>
        <time>2022-03-20T12:43:07.000Z</time>
      </trkpt>
      <trkpt lat="45.05714" lon="0.5624">
        <ele>183.60000610352</ele>
        <time>2022-03-20T12:43:12.000Z</time>
      </trkpt>
      <trkpt lat="45.05729" lon="0.56244">
        <ele>183.80000305176</ele>
        <time>2022-03-20T12:43:17.000Z</time>
      </trkpt>
      <trkpt lat="45.0574" lon="0.56244">
        <ele>184.80000305176</ele>
        <time>2022-03-20T12:43:21.000Z</time>
      </trkpt>
      <trkpt lat="45.05755" lon="0.56253">
        <ele>186.80000305176</ele>
        <time>2022-03-20T12:43:26.000Z</time>
      </trkpt>
      <trkpt lat="45.05769" lon="0.5626">
        <ele>188.60000610352</ele>
        <time>2022-03-20T12:43:31.000Z</time>
      </trkpt>
      <trkpt lat="45.05783" lon="0.56267">
        <ele>186.60000610352</ele>
        <time>2022-03-20T12:43:36.000Z</time>
      </trkpt>
      <trkpt lat="45.05796" lon="0.56278">
        <ele>185.60000610352</ele>
        <time>2022-03-20T12:43:41.000Z</time>
      </trkpt>
      <trkpt lat="45.05807" lon="0.5629">
        <ele>185.80000305176</ele>
        <time>2022-03-20T12:43:46.000Z</time>
      </trkpt>
      <trkpt lat="45.05817" lon="0.56296">
        <ele>187.60000610352</ele>
        <time>2022-03-20T12:43:50.000Z</time>
      </trkpt>
      <trkpt lat="45.05831" lon="0.56301">
        <ele>187.19999694824</ele>
        <time>2022-03-20T12:43:55.000Z</time>
      </trkpt>
      <trkpt lat="45.05844" lon="0.56306">
        <ele>185.39999389648</ele>
        <time>2022-03-20T12:44:00.000Z</time>
      </trkpt>
      <trkpt lat="45.05864" lon="0.56315">
        <ele>185.60000610352</ele>
        <time>2022-03-20T12:44:05.000Z</time>
      </trkpt>
      <trkpt lat="45.0588" lon="0.56317">
        <ele>186</ele>
        <time>2022-03-20T12:44:10.000Z</time>
      </trkpt>
      <trkpt lat="45.05897" lon="0.56319">
        <ele>184.39999389648</ele>
        <time>2022-03-20T12:44:15.000Z</time>
      </trkpt>
      <trkpt lat="45.05911" lon="0.56323">
        <ele>183.80000305176</ele>
        <time>2022-03-20T12:44:19.000Z</time>
      </trkpt>
      <trkpt lat="45.05925" lon="0.56321">
        <ele>184.39999389648</ele>
        <time>2022-03-20T12:44:24.000Z</time>
      </trkpt>
      <trkpt lat="45.05941" lon="0.56317">
        <ele>183.39999389648</ele>
        <time>2022-03-20T12:44:29.000Z</time>
      </trkpt>
      <trkpt lat="45.05957" lon="0.56308">
        <ele>184.19999694824</ele>
        <time>2022-03-20T12:44:34.000Z</time>
      </trkpt>
      <trkpt lat="45.05973" lon="0.56299">
        <ele>183.60000610352</ele>
        <time>2022-03-20T12:44:39.000Z</time>
      </trkpt>
      <trkpt lat="45.05987" lon="0.56287">
        <ele>184</ele>
        <time>2022-03-20T12:44:44.000Z</time>
      </trkpt>
      <trkpt lat="45.05998" lon="0.56275">
        <ele>182.80000305176</ele>
        <time>2022-03-20T12:44:48.000Z</time>
      </trkpt>
      <trkpt lat="45.0601" lon="0.5626">
        <ele>182.80000305176</ele>
        <time>2022-03-20T12:44:53.000Z</time>
      </trkpt>
      <trkpt lat="45.06019" lon="0.56248">
        <ele>182.60000610352</ele>
        <time>2022-03-20T12:44:58.000Z</time>
      </trkpt>
      <trkpt lat="45.0603" lon="0.56234">
        <ele>183.80000305176</ele>
        <time>2022-03-20T12:45:03.000Z</time>
      </trkpt>
      <trkpt lat="45.06042" lon="0.56221">
        <ele>184.19999694824</ele>
        <time>2022-03-20T12:45:08.000Z</time>
      </trkpt>
      <trkpt lat="45.06053" lon="0.56206">
        <ele>182.60000610352</ele>
        <time>2022-03-20T12:45:13.000Z</time>
      </trkpt>
      <trkpt lat="45.06062" lon="0.56194">
        <ele>183</ele>
        <time>2022-03-20T12:45:17.000Z</time>
      </trkpt>
      <trkpt lat="45.06074" lon="0.56178">
        <ele>181.80000305176</ele>
        <time>2022-03-20T12:45:22.000Z</time>
      </trkpt>
      <trkpt lat="45.06085" lon="0.56164">
        <ele>181.80000305176</ele>
        <time>2022-03-20T12:45:27.000Z</time>
      </trkpt>
      <trkpt lat="45.06097" lon="0.56161">
        <ele>181.19999694824</ele>
        <time>2022-03-20T12:45:32.000Z</time>
      </trkpt>
      <trkpt lat="45.06119" lon="0.5615">
        <ele>179.80000305176</ele>
        <time>2022-03-20T12:45:38.000Z</time>
      </trkpt>
      <trkpt lat="45.06133" lon="0.56142">
        <ele>178.60000610352</ele>
        <time>2022-03-20T12:45:43.000Z</time>
      </trkpt>
      <trkpt lat="45.06144" lon="0.56134">
        <ele>176.80000305176</ele>
        <time>2022-03-20T12:45:48.000Z</time>
      </trkpt>
      <trkpt lat="45.06159" lon="0.56125">
        <ele>175.19999694824</ele>
        <time>2022-03-20T12:45:52.000Z</time>
      </trkpt>
      <trkpt lat="45.06174" lon="0.56113">
        <ele>173</ele>
        <time>2022-03-20T12:45:57.000Z</time>
      </trkpt>
      <trkpt lat="45.06188" lon="0.56099">
        <ele>170.19999694824</ele>
        <time>2022-03-20T12:46:02.000Z</time>
      </trkpt>
      <trkpt lat="45.06202" lon="0.56083">
        <ele>168</ele>
        <time>2022-03-20T12:46:07.000Z</time>
      </trkpt>
      <trkpt lat="45.06216" lon="0.56067">
        <ele>165.80000305176</ele>
        <time>2022-03-20T12:46:12.000Z</time>
      </trkpt>
      <trkpt lat="45.0623" lon="0.56052">
        <ele>164.19999694824</ele>
        <time>2022-03-20T12:46:17.000Z</time>
      </trkpt>
      <trkpt lat="45.06242" lon="0.56039">
        <ele>162.19999694824</ele>
        <time>2022-03-20T12:46:21.000Z</time>
      </trkpt>
      <trkpt lat="45.06254" lon="0.56024">
        <ele>160</ele>
        <time>2022-03-20T12:46:26.000Z</time>
      </trkpt>
      <trkpt lat="45.06268" lon="0.56011">
        <ele>158</ele>
        <time>2022-03-20T12:46:31.000Z</time>
      </trkpt>
      <trkpt lat="45.06286" lon="0.55997">
        <ele>156.19999694824</ele>
        <time>2022-03-20T12:46:36.000Z</time>
      </trkpt>
      <trkpt lat="45.063" lon="0.55983">
        <ele>154</ele>
        <time>2022-03-20T12:46:41.000Z</time>
      </trkpt>
      <trkpt lat="45.06312" lon="0.55974">
        <ele>152</ele>
        <time>2022-03-20T12:46:46.000Z</time>
      </trkpt>
      <trkpt lat="45.06322" lon="0.55967">
        <ele>149.60000610352</ele>
        <time>2022-03-20T12:46:50.000Z</time>
      </trkpt>
      <trkpt lat="45.06338" lon="0.55953">
        <ele>146.19999694824</ele>
        <time>2022-03-20T12:46:55.000Z</time>
      </trkpt>
      <trkpt lat="45.06352" lon="0.55944">
        <ele>144.19999694824</ele>
        <time>2022-03-20T12:47:00.000Z</time>
      </trkpt>
      <trkpt lat="45.06368" lon="0.5593">
        <ele>141.19999694824</ele>
        <time>2022-03-20T12:47:05.000Z</time>
      </trkpt>
      <trkpt lat="45.06382" lon="0.55912">
        <ele>139.60000610352</ele>
        <time>2022-03-20T12:47:10.000Z</time>
      </trkpt>
      <trkpt lat="45.06396" lon="0.55906">
        <ele>138.19999694824</ele>
        <time>2022-03-20T12:47:15.000Z</time>
      </trkpt>
      <trkpt lat="45.0641" lon="0.55915">
        <ele>138.80000305176</ele>
        <time>2022-03-20T12:47:19.000Z</time>
      </trkpt>
      <trkpt lat="45.06428" lon="0.55922">
        <ele>138.60000610352</ele>
        <time>2022-03-20T12:47:24.000Z</time>
      </trkpt>
      <trkpt lat="45.06443" lon="0.55929">
        <ele>139.39999389648</ele>
        <time>2022-03-20T12:47:29.000Z</time>
      </trkpt>
      <trkpt lat="45.06457" lon="0.55934">
        <ele>139.60000610352</ele>
        <time>2022-03-20T12:47:34.000Z</time>
      </trkpt>
      <trkpt lat="45.06471" lon="0.5594">
        <ele>142</ele>
        <time>2022-03-20T12:47:39.000Z</time>
      </trkpt>
      <trkpt lat="45.06484" lon="0.55945">
        <ele>141.80000305176</ele>
        <time>2022-03-20T12:47:44.000Z</time>
      </trkpt>
      <trkpt lat="45.06497" lon="0.55952">
        <ele>142.60000610352</ele>
        <time>2022-03-20T12:47:49.000Z</time>
      </trkpt>
      <trkpt lat="45.06508" lon="0.55957">
        <ele>144</ele>
        <time>2022-03-20T12:47:53.000Z</time>
      </trkpt>
      <trkpt lat="45.06521" lon="0.55963">
        <ele>147</ele>
        <time>2022-03-20T12:47:58.000Z</time>
      </trkpt>
      <trkpt lat="45.06534" lon="0.55968">
        <ele>147.60000610352</ele>
        <time>2022-03-20T12:48:03.000Z</time>
      </trkpt>
      <trkpt lat="45.06544" lon="0.55967">
        <ele>147.60000610352</ele>
        <time>2022-03-20T12:48:08.000Z</time>
      </trkpt>
      <trkpt lat="45.06555" lon="0.55959">
        <ele>149.80000305176</ele>
        <time>2022-03-20T12:48:13.000Z</time>
      </trkpt>
      <trkpt lat="45.06564" lon="0.55955">
        <ele>150.39999389648</ele>
        <time>2022-03-20T12:48:18.000Z</time>
      </trkpt>
      <trkpt lat="45.06574" lon="0.5595">
        <ele>153.19999694824</ele>
        <time>2022-03-20T12:48:22.000Z</time>
      </trkpt>
      <trkpt lat="45.06584" lon="0.55944">
        <ele>154.60000610352</ele>
        <time>2022-03-20T12:48:27.000Z</time>
      </trkpt>
      <trkpt lat="45.06592" lon="0.55937">
        <ele>156.60000610352</ele>
        <time>2022-03-20T12:48:32.000Z</time>
      </trkpt>
      <trkpt lat="45.06599" lon="0.55929">
        <ele>158</ele>
        <time>2022-03-20T12:48:37.000Z</time>
      </trkpt>
      <trkpt lat="45.06606" lon="0.55922">
        <ele>159.80000305176</ele>
        <time>2022-03-20T12:48:42.000Z</time>
      </trkpt>
      <trkpt lat="45.06613" lon="0.55917">
        <ele>162.19999694824</ele>
        <time>2022-03-20T12:48:47.000Z</time>
      </trkpt>
      <trkpt lat="45.06619" lon="0.55916">
        <ele>164</ele>
        <time>2022-03-20T12:48:52.000Z</time>
      </trkpt>
      <trkpt lat="45.06629" lon="0.5591">
        <ele>165.39999389648</ele>
        <time>2022-03-20T12:48:57.000Z</time>
      </trkpt>
      <trkpt lat="45.06639" lon="0.55903">
        <ele>167.60000610352</ele>
        <time>2022-03-20T12:49:02.000Z</time>
      </trkpt>
      <trkpt lat="45.06647" lon="0.55897">
        <ele>169</ele>
        <time>2022-03-20T12:49:07.000Z</time>
      </trkpt>
      <trkpt lat="45.06657" lon="0.55889">
        <ele>171.19999694824</ele>
        <time>2022-03-20T12:49:12.000Z</time>
      </trkpt>
      <trkpt lat="45.06663" lon="0.55881">
        <ele>172.60000610352</ele>
        <time>2022-03-20T12:49:17.000Z</time>
      </trkpt>
      <trkpt lat="45.0667" lon="0.55875">
        <ele>176</ele>
        <time>2022-03-20T12:49:21.000Z</time>
      </trkpt>
      <trkpt lat="45.06678" lon="0.55869">
        <ele>176</ele>
        <time>2022-03-20T12:49:26.000Z</time>
      </trkpt>
      <trkpt lat="45.06688" lon="0.55861">
        <ele>178.39999389648</ele>
        <time>2022-03-20T12:49:31.000Z</time>
      </trkpt>
      <trkpt lat="45.06698" lon="0.55854">
        <ele>179.39999389648</ele>
        <time>2022-03-20T12:49:36.000Z</time>
      </trkpt>
      <trkpt lat="45.06707" lon="0.55852">
        <ele>181.60000610352</ele>
        <time>2022-03-20T12:49:41.000Z</time>
      </trkpt>
      <trkpt lat="45.06718" lon="0.5585">
        <ele>183</ele>
        <time>2022-03-20T12:49:46.000Z</time>
      </trkpt>
      <trkpt lat="45.06726" lon="0.55846">
        <ele>184.60000610352</ele>
        <time>2022-03-20T12:49:51.000Z</time>
      </trkpt>
      <trkpt lat="45.06732" lon="0.55842">
        <ele>186.39999389648</ele>
        <time>2022-03-20T12:49:55.000Z</time>
      </trkpt>
      <trkpt lat="45.06739" lon="0.55835">
        <ele>187.19999694824</ele>
        <time>2022-03-20T12:50:00.000Z</time>
      </trkpt>
      <trkpt lat="45.06748" lon="0.55835">
        <ele>188.80000305176</ele>
        <time>2022-03-20T12:50:05.000Z</time>
      </trkpt>
      <trkpt lat="45.06759" lon="0.55844">
        <ele>189.80000305176</ele>
        <time>2022-03-20T12:50:10.000Z</time>
      </trkpt>
      <trkpt lat="45.06772" lon="0.55845">
        <ele>191.80000305176</ele>
        <time>2022-03-20T12:50:15.000Z</time>
      </trkpt>
      <trkpt lat="45.0678" lon="0.55846">
        <ele>193.60000610352</ele>
        <time>2022-03-20T12:50:20.000Z</time>
      </trkpt>
      <trkpt lat="45.0679" lon="0.55846">
        <ele>195.19999694824</ele>
        <time>2022-03-20T12:50:24.000Z</time>
      </trkpt>
      <trkpt lat="45.06804" lon="0.55847">
        <ele>194.60000610352</ele>
        <time>2022-03-20T12:50:29.000Z</time>
      </trkpt>
      <trkpt lat="45.0682" lon="0.55849">
        <ele>194.80000305176</ele>
        <time>2022-03-20T12:50:34.000Z</time>
      </trkpt>
      <trkpt lat="45.06833" lon="0.55852">
        <ele>196.39999389648</ele>
        <time>2022-03-20T12:50:39.000Z</time>
      </trkpt>
      <trkpt lat="45.06844" lon="0.55857">
        <ele>198.19999694824</ele>
        <time>2022-03-20T12:50:44.000Z</time>
      </trkpt>
      <trkpt lat="45.06863" lon="0.55869">
        <ele>198.39999389648</ele>
        <time>2022-03-20T12:50:49.000Z</time>
      </trkpt>
      <trkpt lat="45.06943" lon="0.55669">
        <ele>187.1</ele>
        <time>2022-03-20T12:02:28.000Z</time>
      </trkpt>
      <trkpt lat="45.06939" lon="0.55662">
        <ele>180.60000610352</ele>
        <time>2022-03-20T12:02:30.000Z</time>
      </trkpt>
      <trkpt lat="45.06928" lon="0.55649">
        <ele>181.19999694824</ele>
        <time>2022-03-20T12:02:35.000Z</time>
      </trkpt>
      <trkpt lat="45.06917" lon="0.55637">
        <ele>181.80000305176</ele>
        <time>2022-03-20T12:02:40.000Z</time>
      </trkpt>
      <trkpt lat="45.06903" lon="0.55628">
        <ele>182.39999389648</ele>
        <time>2022-03-20T12:02:45.000Z</time>
      </trkpt>
      <trkpt lat="45.06888" lon="0.55614">
        <ele>183</ele>
        <time>2022-03-20T12:02:50.000Z</time>
      </trkpt>
      <trkpt lat="45.06892" lon="0.55595">
        <ele>183.39999389648</ele>
        <time>2022-03-20T12:02:55.000Z</time>
      </trkpt>
      <trkpt lat="45.06901" lon="0.55581">
        <ele>183.80000305176</ele>
        <time>2022-03-20T12:02:59.000Z</time>
      </trkpt>
      <trkpt lat="45.0691" lon="0.55564">
        <ele>184</ele>
        <time>2022-03-20T12:03:04.000Z</time>
      </trkpt>
      <trkpt lat="45.06918" lon="0.55546">
        <ele>184.19999694824</ele>
        <time>2022-03-20T12:03:09.000Z</time>
      </trkpt>
      <trkpt lat="45.06927" lon="0.55528">
        <ele>184.60000610352</ele>
        <time>2022-03-20T12:03:14.000Z</time>
      </trkpt>
      <trkpt lat="45.0692" lon="0.55507">
        <ele>184.60000610352</ele>
        <time>2022-03-20T12:03:19.000Z</time>
      </trkpt>
      <trkpt lat="45.06908" lon="0.55488">
        <ele>184.60000610352</ele>
        <time>2022-03-20T12:03:24.000Z</time>
      </trkpt>
      <trkpt lat="45.06896" lon="0.55479">
        <ele>184.60000610352</ele>
        <time>2022-03-20T12:03:28.000Z</time>
      </trkpt>
      <trkpt lat="45.06882" lon="0.55465">
        <ele>184.60000610352</ele>
        <time>2022-03-20T12:03:33.000Z</time>
      </trkpt>
      <trkpt lat="45.06868" lon="0.55446">
        <ele>184.39999389648</ele>
        <time>2022-03-20T12:03:38.000Z</time>
      </trkpt>
      <trkpt lat="45.0686" lon="0.55425">
        <ele>184.19999694824</ele>
        <time>2022-03-20T12:03:43.000Z</time>
      </trkpt>
      <trkpt lat="45.06848" lon="0.55409">
        <ele>183.80000305176</ele>
        <time>2022-03-20T12:03:48.000Z</time>
      </trkpt>
      <trkpt lat="45.06835" lon="0.55387">
        <ele>183.39999389648</ele>
        <time>2022-03-20T12:03:53.000Z</time>
      </trkpt>
      <trkpt lat="45.06827" lon="0.55367">
        <ele>183.19999694824</ele>
        <time>2022-03-20T12:03:58.000Z</time>
      </trkpt>
      <trkpt lat="45.06816" lon="0.55356">
        <ele>182.80000305176</ele>
        <time>2022-03-20T12:04:02.000Z</time>
      </trkpt>
      <trkpt lat="45.06806" lon="0.55331">
        <ele>182.19999694824</ele>
        <time>2022-03-20T12:04:07.000Z</time>
      </trkpt>
      <trkpt lat="45.06796" lon="0.5531">
        <ele>181.60000610352</ele>
        <time>2022-03-20T12:04:12.000Z</time>
      </trkpt>
      <trkpt lat="45.06795" lon="0.55288">
        <ele>180.60000610352</ele>
        <time>2022-03-20T12:04:17.000Z</time>
      </trkpt>
      <trkpt lat="45.06793" lon="0.55265">
        <ele>180</ele>
        <time>2022-03-20T12:04:22.000Z</time>
      </trkpt>
      <trkpt lat="45.06789" lon="0.55241">
        <ele>179.39999389648</ele>
        <time>2022-03-20T12:04:27.000Z</time>
      </trkpt>
      <trkpt lat="45.06784" lon="0.55225">
        <ele>178.80000305176</ele>
        <time>2022-03-20T12:04:31.000Z</time>
      </trkpt>
      <trkpt lat="45.06783" lon="0.55202">
        <ele>178</ele>
        <time>2022-03-20T12:04:36.000Z</time>
      </trkpt>
      <trkpt lat="45.06781" lon="0.55182">
        <ele>177.19999694824</ele>
        <time>2022-03-20T12:04:41.000Z</time>
      </trkpt>
      <trkpt lat="45.06775" lon="0.55165">
        <ele>176.39999389648</ele>
        <time>2022-03-20T12:04:46.000Z</time>
      </trkpt>
      <trkpt lat="45.06778" lon="0.55146">
        <ele>175.60000610352</ele>
        <time>2022-03-20T12:04:51.000Z</time>
      </trkpt>
      <trkpt lat="45.0678" lon="0.55126">
        <ele>174.80000305176</ele>
        <time>2022-03-20T12:04:56.000Z</time>
      </trkpt>
      <trkpt lat="45.06781" lon="0.55106">
        <ele>174.19999694824</ele>
        <time>2022-03-20T12:05:00.000Z</time>
      </trkpt>
      <trkpt lat="45.0678" lon="0.55082">
        <ele>173.39999389648</ele>
        <time>2022-03-20T12:05:05.000Z</time>
      </trkpt>
      <trkpt lat="45.06781" lon="0.55059">
        <ele>172.60000610352</ele>
        <time>2022-03-20T12:05:10.000Z</time>
      </trkpt>
      <trkpt lat="45.06783" lon="0.5503">
        <ele>171.80000305176</ele>
        <time>2022-03-20T12:05:15.000Z</time>
      </trkpt>
      <trkpt lat="45.06777" lon="0.55009">
        <ele>170.80000305176</ele>
        <time>2022-03-20T12:05:20.000Z</time>
      </trkpt>
      <trkpt lat="45.06766" lon="0.54999">
        <ele>169.80000305176</ele>
        <time>2022-03-20T12:05:25.000Z</time>
      </trkpt>
      <trkpt lat="45.06756" lon="0.54993">
        <ele>169.19999694824</ele>
        <time>2022-03-20T12:05:29.000Z</time>
      </trkpt>
      <trkpt lat="45.06742" lon="0.54988">
        <ele>168.39999389648</ele>
        <time>2022-03-20T12:05:34.000Z</time>
      </trkpt>
      <trkpt lat="45.06728" lon="0.54982">
        <ele>167.60000610352</ele>
        <time>2022-03-20T12:05:39.000Z</time>
      </trkpt>
      <trkpt lat="45.06715" lon="0.54976">
        <ele>166.60000610352</ele>
        <time>2022-03-20T12:05:44.000Z</time>
      </trkpt>
      <trkpt lat="45.06699" lon="0.5497">
        <ele>165.80000305176</ele>
        <time>2022-03-20T12:05:49.000Z</time>
      </trkpt>
      <trkpt lat="45.06682" lon="0.54964">
        <ele>164.80000305176</ele>
        <time>2022-03-20T12:05:54.000Z</time>
      </trkpt>
      <trkpt lat="45.06666" lon="0.54956">
        <ele>163.80000305176</ele>
        <time>2022-03-20T12:05:59.000Z</time>
      </trkpt>
      <trkpt lat="45.06655" lon="0.54947">
        <ele>163</ele>
        <time>2022-03-20T12:06:03.000Z</time>
      </trkpt>
      <trkpt lat="45.06639" lon="0.54935">
        <ele>162</ele>
        <time>2022-03-20T12:06:08.000Z</time>
      </trkpt>
      <trkpt lat="45.06625" lon="0.54923">
        <ele>161</ele>
        <time>2022-03-20T12:06:13.000Z</time>
      </trkpt>
      <trkpt lat="45.0661" lon="0.54917">
        <ele>159.80000305176</ele>
        <time>2022-03-20T12:06:18.000Z</time>
      </trkpt>
      <trkpt lat="45.06595" lon="0.5491">
        <ele>158.80000305176</ele>
        <time>2022-03-20T12:06:23.000Z</time>
      </trkpt>
      <trkpt lat="45.0658" lon="0.54903">
        <ele>158</ele>
        <time>2022-03-20T12:06:28.000Z</time>
      </trkpt>
      <trkpt lat="45.06567" lon="0.54896">
        <ele>157.19999694824</ele>
        <time>2022-03-20T12:06:32.000Z</time>
      </trkpt>
      <trkpt lat="45.0655" lon="0.54887">
        <ele>156.19999694824</ele>
        <time>2022-03-20T12:06:37.000Z</time>
      </trkpt>
      <trkpt lat="45.06535" lon="0.54877">
        <ele>155.39999389648</ele>
        <time>2022-03-20T12:06:42.000Z</time>
      </trkpt>
      <trkpt lat="45.06521" lon="0.54868">
        <ele>154.60000610352</ele>
        <time>2022-03-20T12:06:47.000Z</time>
      </trkpt>
      <trkpt lat="45.06507" lon="0.54858">
        <ele>153.60000610352</ele>
        <time>2022-03-20T12:06:52.000Z</time>
      </trkpt>
      <trkpt lat="45.06492" lon="0.5485">
        <ele>152.80000305176</ele>
        <time>2022-03-20T12:06:57.000Z</time>
      </trkpt>
      <trkpt lat="45.0648" lon="0.54847">
        <ele>152.19999694824</ele>
        <time>2022-03-20T12:07:01.000Z</time>
      </trkpt>
      <trkpt lat="45.06465" lon="0.54843">
        <ele>151</ele>
        <time>2022-03-20T12:07:06.000Z</time>
      </trkpt>
      <trkpt lat="45.06448" lon="0.5484">
        <ele>150.39999389648</ele>
        <time>2022-03-20T12:07:11.000Z</time>
      </trkpt>
      <trkpt lat="45.06432" lon="0.54835">
        <ele>149.60000610352</ele>
        <time>2022-03-20T12:07:16.000Z</time>
      </trkpt>
      <trkpt lat="45.06415" lon="0.54831">
        <ele>148.60000610352</ele>
        <time>2022-03-20T12:07:21.000Z</time>
      </trkpt>
      <trkpt lat="45.06404" lon="0.5483">
        <ele>147.60000610352</ele>
        <time>2022-03-20T12:07:26.000Z</time>
      </trkpt>
      <trkpt lat="45.06393" lon="0.54833">
        <ele>147</ele>
        <time>2022-03-20T12:07:30.000Z</time>
      </trkpt>
      <trkpt lat="45.06378" lon="0.54834">
        <ele>146</ele>
        <time>2022-03-20T12:07:35.000Z</time>
      </trkpt>
      <trkpt lat="45.06363" lon="0.54818">
        <ele>145</ele>
        <time>2022-03-20T12:07:40.000Z</time>
      </trkpt>
      <trkpt lat="45.06349" lon="0.54801">
        <ele>144</ele>
        <time>2022-03-20T12:07:45.000Z</time>
      </trkpt>
      <trkpt lat="45.06334" lon="0.54789">
        <ele>143</ele>
        <time>2022-03-20T12:07:50.000Z</time>
      </trkpt>
      <trkpt lat="45.06319" lon="0.54774">
        <ele>142</ele>
        <time>2022-03-20T12:07:55.000Z</time>
      </trkpt>
      <trkpt lat="45.06306" lon="0.54757">
        <ele>141.19999694824</ele>
        <time>2022-03-20T12:08:00.000Z</time>
      </trkpt>
      <trkpt lat="45.06292" lon="0.5474">
        <ele>140.19999694824</ele>
        <time>2022-03-20T12:08:04.000Z</time>
      </trkpt>
      <trkpt lat="45.0628" lon="0.54721">
        <ele>139.19999694824</ele>
        <time>2022-03-20T12:08:10.000Z</time>
      </trkpt>
      <trkpt lat="45.06269" lon="0.54702">
        <ele>138.39999389648</ele>
        <time>2022-03-20T12:08:15.000Z</time>
      </trkpt>
      <trkpt lat="45.06258" lon="0.54682">
        <ele>137.60000610352</ele>
        <time>2022-03-20T12:08:20.000Z</time>
      </trkpt>
      <trkpt lat="45.06252" lon="0.54659">
        <ele>136.60000610352</ele>
        <time>2022-03-20T12:08:25.000Z</time>
      </trkpt>
      <trkpt lat="45.06245" lon="0.54638">
        <ele>135.80000305176</ele>
        <time>2022-03-20T12:08:30.000Z</time>
      </trkpt>
      <trkpt lat="45.0624" lon="0.54621">
        <ele>135</ele>
        <time>2022-03-20T12:08:34.000Z</time>
      </trkpt>
      <trkpt lat="45.0623" lon="0.54613">
        <ele>134.19999694824</ele>
        <time>2022-03-20T12:08:39.000Z</time>
      </trkpt>
      <trkpt lat="45.06216" lon="0.54619">
        <ele>133.39999389648</ele>
        <time>2022-03-20T12:08:44.000Z</time>
      </trkpt>
      <trkpt lat="45.06205" lon="0.54625">
        <ele>132.80000305176</ele>
        <time>2022-03-20T12:08:49.000Z</time>
      </trkpt>
      <trkpt lat="45.06194" lon="0.5463">
        <ele>132.19999694824</ele>
        <time>2022-03-20T12:08:54.000Z</time>
      </trkpt>
      <trkpt lat="45.06181" lon="0.54634">
        <ele>131.60000610352</ele>
        <time>2022-03-20T12:08:59.000Z</time>
      </trkpt>
      <trkpt lat="45.0617" lon="0.54636">
        <ele>131.19999694824</ele>
        <time>2022-03-20T12:09:03.000Z</time>
      </trkpt>
      <trkpt lat="45.06156" lon="0.54636">
        <ele>130.80000305176</ele>
        <time>2022-03-20T12:09:08.000Z</time>
      </trkpt>
      <trkpt lat="45.06142" lon="0.54636">
        <ele>130.39999389648</ele>
        <time>2022-03-20T12:09:13.000Z</time>
      </trkpt>
      <trkpt lat="45.06128" lon="0.54635">
        <ele>130.19999694824</ele>
        <time>2022-03-20T12:09:18.000Z</time>
      </trkpt>
      <trkpt lat="45.06114" lon="0.54637">
        <ele>130</ele>
        <time>2022-03-20T12:09:23.000Z</time>
      </trkpt>
      <trkpt lat="45.061" lon="0.54639">
        <ele>129.80000305176</ele>
        <time>2022-03-20T12:09:28.000Z</time>
      </trkpt>
      <trkpt lat="45.06089" lon="0.5464">
        <ele>129.80000305176</ele>
        <time>2022-03-20T12:09:32.000Z</time>
      </trkpt>
      <trkpt lat="45.06075" lon="0.54642">
        <ele>130</ele>
        <time>2022-03-20T12:09:37.000Z</time>
      </trkpt>
      <trkpt lat="45.06062" lon="0.54648">
        <ele>130.19999694824</ele>
        <time>2022-03-20T12:09:42.000Z</time>
      </trkpt>
      <trkpt lat="45.06049" lon="0.54653">
        <ele>130.19999694824</ele>
        <time>2022-03-20T12:09:47.000Z</time>
      </trkpt>
      <trkpt lat="45.06035" lon="0.54656">
        <ele>130.39999389648</ele>
        <time>2022-03-20T12:09:52.000Z</time>
      </trkpt>
      <trkpt lat="45.06021" lon="0.5466">
        <ele>130.60000610352</ele>
        <time>2022-03-20T12:09:57.000Z</time>
      </trkpt>
      <trkpt lat="45.06011" lon="0.54664">
        <ele>130.80000305176</ele>
        <time>2022-03-20T12:10:01.000Z</time>
      </trkpt>
      <trkpt lat="45.05998" lon="0.5467">
        <ele>131</ele>
        <time>2022-03-20T12:10:06.000Z</time>
      </trkpt>
      <trkpt lat="45.05984" lon="0.54678">
        <ele>131</ele>
        <time>2022-03-20T12:10:11.000Z</time>
      </trkpt>
      <trkpt lat="45.0597" lon="0.54685">
        <ele>131.19999694824</ele>
        <time>2022-03-20T12:10:16.000Z</time>
      </trkpt>
      <trkpt lat="45.05956" lon="0.54692">
        <ele>131.19999694824</ele>
        <time>2022-03-20T12:10:21.000Z</time>
      </trkpt>
      <trkpt lat="45.0594" lon="0.54699">
        <ele>131.39999389648</ele>
        <time>2022-03-20T12:10:26.000Z</time>
      </trkpt>
      <trkpt lat="45.05919" lon="0.54711">
        <ele>121.8</ele>
      </trkpt>
      <trkpt lat="45.05902" lon="0.5476">
        <ele>123.5</ele>
      </trkpt>
      <trkpt lat="45.05877" lon="0.54822">
        <ele>124.7</ele>
      </trkpt>
      <trkpt lat="45.05831" lon="0.54931">
        <ele>126.9</ele>
      </trkpt>
      <trkpt lat="45.05802" lon="0.54981">
        <ele>127.7</ele>
      </trkpt>
      <trkpt lat="45.05772" lon="0.55026">
        <ele>129.7</ele>
      </trkpt>
      <trkpt lat="45.05717" lon="0.55117">
        <ele>132.4</ele>
      </trkpt>
      <trkpt lat="45.05651" lon="0.55226">
        <ele>135.7</ele>
        <time>2022-03-20T12:10:31.000Z</time>
      </trkpt>
    </trkseg>
  </trk>
</gpx>